<?xml version="1.0" encoding="UTF-8" standalone="no" ?>
<gpx xmlns="http://www.topografix.com/GPX/1/1" xmlns:xsi="http://www.w3.org/2001/XMLSchema-instance" xsi:schemaLocation="http://www.topografix.com/GPX/1/1 http://www.topografix.com/GPX/1/1/gpx.xsd" version="1.1" creator="VisuGPX - https://www.visugpx.com">
  <metadata>
    <name>Autour du Beaucet</name>
    <desc><![CDATA[Autour du Beaucet en passant par Saint Gens; Barbarenque et la Roque sur Pernes]]></desc>
  </metadata>
  <trk>
    <name><![CDATA[2019-02-25 15-20-51]]></name>
    <trkseg>
      <trkpt lat="43.98328" lon="5.11893">
        <ele>249.12</ele>
        <time>2019-02-25T08:36:36Z</time>
      </trkpt>
      <trkpt lat="43.98328" lon="5.11893">
        <ele>249.12</ele>
        <time>2019-02-25T08:36:37Z</time>
      </trkpt>
      <trkpt lat="43.98333" lon="5.11901">
        <ele>248.64</ele>
        <time>2019-02-25T08:36:56Z</time>
      </trkpt>
      <trkpt lat="43.98345" lon="5.11911">
        <ele>248.64</ele>
        <time>2019-02-25T08:37:11Z</time>
      </trkpt>
      <trkpt lat="43.98358" lon="5.11911">
        <ele>248.64</ele>
        <time>2019-02-25T08:37:25Z</time>
      </trkpt>
      <trkpt lat="43.98375" lon="5.11903">
        <ele>248.64</ele>
        <time>2019-02-25T08:37:43Z</time>
      </trkpt>
      <trkpt lat="43.98386" lon="5.11899">
        <ele>246.72</ele>
        <time>2019-02-25T08:38:00Z</time>
      </trkpt>
      <trkpt lat="43.98407" lon="5.11903">
        <ele>244.79</ele>
        <time>2019-02-25T08:38:21Z</time>
      </trkpt>
      <trkpt lat="43.98426" lon="5.11913">
        <ele>242.39</ele>
        <time>2019-02-25T08:38:39Z</time>
      </trkpt>
      <trkpt lat="43.98436" lon="5.11892">
        <ele>239.51</ele>
        <time>2019-02-25T08:38:56Z</time>
      </trkpt>
      <trkpt lat="43.98435" lon="5.11867">
        <ele>236.62</ele>
        <time>2019-02-25T08:39:14Z</time>
      </trkpt>
      <trkpt lat="43.98438" lon="5.11856">
        <ele>234.7</ele>
        <time>2019-02-25T08:39:25Z</time>
      </trkpt>
      <trkpt lat="43.98441" lon="5.11857">
        <ele>234.7</ele>
        <time>2019-02-25T08:39:29Z</time>
      </trkpt>
      <trkpt lat="43.98458" lon="5.11864">
        <ele>233.26</ele>
        <time>2019-02-25T08:39:44Z</time>
      </trkpt>
      <trkpt lat="43.98475" lon="5.11869">
        <ele>231.81</ele>
        <time>2019-02-25T08:40:01Z</time>
      </trkpt>
      <trkpt lat="43.98487" lon="5.11869">
        <ele>231.33</ele>
        <time>2019-02-25T08:40:12Z</time>
      </trkpt>
      <trkpt lat="43.98507" lon="5.11873">
        <ele>229.89</ele>
        <time>2019-02-25T08:40:27Z</time>
      </trkpt>
      <trkpt lat="43.98526" lon="5.11882">
        <ele>228.45</ele>
        <time>2019-02-25T08:40:46Z</time>
      </trkpt>
      <trkpt lat="43.98536" lon="5.11886">
        <ele>227.01</ele>
        <time>2019-02-25T08:41:02Z</time>
      </trkpt>
      <trkpt lat="43.98561" lon="5.11894">
        <ele>225.57</ele>
        <time>2019-02-25T08:41:23Z</time>
      </trkpt>
      <trkpt lat="43.98562" lon="5.11895">
        <ele>225.57</ele>
        <time>2019-02-25T08:41:24Z</time>
      </trkpt>
      <trkpt lat="43.98577" lon="5.11909">
        <ele>226.53</ele>
        <time>2019-02-25T08:41:40Z</time>
      </trkpt>
      <trkpt lat="43.98591" lon="5.11929">
        <ele>228.93</ele>
        <time>2019-02-25T08:42:00Z</time>
      </trkpt>
      <trkpt lat="43.98598" lon="5.1194">
        <ele>229.89</ele>
        <time>2019-02-25T08:42:11Z</time>
      </trkpt>
      <trkpt lat="43.98603" lon="5.11947">
        <ele>230.37</ele>
        <time>2019-02-25T08:42:17Z</time>
      </trkpt>
      <trkpt lat="43.98617" lon="5.11959">
        <ele>232.3</ele>
        <time>2019-02-25T08:42:36Z</time>
      </trkpt>
      <trkpt lat="43.9863" lon="5.11955">
        <ele>233.26</ele>
        <time>2019-02-25T08:42:50Z</time>
      </trkpt>
      <trkpt lat="43.98648" lon="5.11947">
        <ele>235.18</ele>
        <time>2019-02-25T08:43:10Z</time>
      </trkpt>
      <trkpt lat="43.98663" lon="5.1194">
        <ele>238.54</ele>
        <time>2019-02-25T08:43:30Z</time>
      </trkpt>
      <trkpt lat="43.98676" lon="5.11935">
        <ele>241.43</ele>
        <time>2019-02-25T08:43:49Z</time>
      </trkpt>
      <trkpt lat="43.9869" lon="5.11928">
        <ele>243.83</ele>
        <time>2019-02-25T08:44:08Z</time>
      </trkpt>
      <trkpt lat="43.98704" lon="5.11925">
        <ele>246.72</ele>
        <time>2019-02-25T08:44:29Z</time>
      </trkpt>
      <trkpt lat="43.98717" lon="5.11934">
        <ele>249.6</ele>
        <time>2019-02-25T08:44:49Z</time>
      </trkpt>
      <trkpt lat="43.98724" lon="5.11951">
        <ele>252.96</ele>
        <time>2019-02-25T08:45:09Z</time>
      </trkpt>
      <trkpt lat="43.98728" lon="5.11955">
        <ele>255.37</ele>
        <time>2019-02-25T08:45:31Z</time>
      </trkpt>
      <trkpt lat="43.98728" lon="5.11952">
        <ele>255.85</ele>
        <time>2019-02-25T08:46:00Z</time>
      </trkpt>
      <trkpt lat="43.98733" lon="5.11955">
        <ele>255.85</ele>
        <time>2019-02-25T08:46:27Z</time>
      </trkpt>
      <trkpt lat="43.98742" lon="5.1197">
        <ele>258.25</ele>
        <time>2019-02-25T08:46:43Z</time>
      </trkpt>
      <trkpt lat="43.98752" lon="5.1198">
        <ele>261.14</ele>
        <time>2019-02-25T08:47:01Z</time>
      </trkpt>
      <trkpt lat="43.98761" lon="5.11985">
        <ele>264.5</ele>
        <time>2019-02-25T08:47:15Z</time>
      </trkpt>
      <trkpt lat="43.98765" lon="5.11988">
        <ele>267.38</ele>
        <time>2019-02-25T08:47:32Z</time>
      </trkpt>
      <trkpt lat="43.98761" lon="5.11988">
        <ele>268.35</ele>
        <time>2019-02-25T08:47:58Z</time>
      </trkpt>
      <trkpt lat="43.98764" lon="5.12002">
        <ele>271.23</ele>
        <time>2019-02-25T08:48:17Z</time>
      </trkpt>
      <trkpt lat="43.98766" lon="5.12009">
        <ele>274.59</ele>
        <time>2019-02-25T08:48:37Z</time>
      </trkpt>
      <trkpt lat="43.98771" lon="5.12016">
        <ele>277</ele>
        <time>2019-02-25T08:49:00Z</time>
      </trkpt>
      <trkpt lat="43.98769" lon="5.12025">
        <ele>279.4</ele>
        <time>2019-02-25T08:49:15Z</time>
      </trkpt>
      <trkpt lat="43.98759" lon="5.12022">
        <ele>281.8</ele>
        <time>2019-02-25T08:49:36Z</time>
      </trkpt>
      <trkpt lat="43.98752" lon="5.12024">
        <ele>284.21</ele>
        <time>2019-02-25T08:49:53Z</time>
      </trkpt>
      <trkpt lat="43.98738" lon="5.12036">
        <ele>286.61</ele>
        <time>2019-02-25T08:50:16Z</time>
      </trkpt>
      <trkpt lat="43.98735" lon="5.12041">
        <ele>286.61</ele>
        <time>2019-02-25T08:50:41Z</time>
      </trkpt>
      <trkpt lat="43.98736" lon="5.12041">
        <ele>286.61</ele>
        <time>2019-02-25T08:52:27Z</time>
      </trkpt>
      <trkpt lat="43.98736" lon="5.12039">
        <ele>286.61</ele>
        <time>2019-02-25T08:52:57Z</time>
      </trkpt>
      <trkpt lat="43.98734" lon="5.12035">
        <ele>286.61</ele>
        <time>2019-02-25T08:53:17Z</time>
      </trkpt>
      <trkpt lat="43.98734" lon="5.12042">
        <ele>286.61</ele>
        <time>2019-02-25T08:53:41Z</time>
      </trkpt>
      <trkpt lat="43.98731" lon="5.12057">
        <ele>286.61</ele>
        <time>2019-02-25T08:54:00Z</time>
      </trkpt>
      <trkpt lat="43.98732" lon="5.1207">
        <ele>289.49</ele>
        <time>2019-02-25T08:54:16Z</time>
      </trkpt>
      <trkpt lat="43.98733" lon="5.12084">
        <ele>292.38</ele>
        <time>2019-02-25T08:54:36Z</time>
      </trkpt>
      <trkpt lat="43.98723" lon="5.12091">
        <ele>291.42</ele>
        <time>2019-02-25T08:54:57Z</time>
      </trkpt>
      <trkpt lat="43.98713" lon="5.12093">
        <ele>291.42</ele>
        <time>2019-02-25T08:55:10Z</time>
      </trkpt>
      <trkpt lat="43.98694" lon="5.12098">
        <ele>291.42</ele>
        <time>2019-02-25T08:55:28Z</time>
      </trkpt>
      <trkpt lat="43.98681" lon="5.12103">
        <ele>291.9</ele>
        <time>2019-02-25T08:55:43Z</time>
      </trkpt>
      <trkpt lat="43.98665" lon="5.12103">
        <ele>292.38</ele>
        <time>2019-02-25T08:55:59Z</time>
      </trkpt>
      <trkpt lat="43.98646" lon="5.12099">
        <ele>293.34</ele>
        <time>2019-02-25T08:56:23Z</time>
      </trkpt>
      <trkpt lat="43.98626" lon="5.12108">
        <ele>293.82</ele>
        <time>2019-02-25T08:56:44Z</time>
      </trkpt>
      <trkpt lat="43.98615" lon="5.12095">
        <ele>291.42</ele>
        <time>2019-02-25T08:57:02Z</time>
      </trkpt>
      <trkpt lat="43.98615" lon="5.12095">
        <ele>291.42</ele>
        <time>2019-02-25T08:57:22Z</time>
      </trkpt>
      <trkpt lat="43.98616" lon="5.12096">
        <ele>291.42</ele>
        <time>2019-02-25T08:57:39Z</time>
      </trkpt>
      <trkpt lat="43.98616" lon="5.12093">
        <ele>291.42</ele>
        <time>2019-02-25T08:58:04Z</time>
      </trkpt>
      <trkpt lat="43.98614" lon="5.12094">
        <ele>291.9</ele>
        <time>2019-02-25T08:58:30Z</time>
      </trkpt>
      <trkpt lat="43.98618" lon="5.12107">
        <ele>291.9</ele>
        <time>2019-02-25T08:58:48Z</time>
      </trkpt>
      <trkpt lat="43.98614" lon="5.12107">
        <ele>291.9</ele>
        <time>2019-02-25T08:59:07Z</time>
      </trkpt>
      <trkpt lat="43.98613" lon="5.12106">
        <ele>288.53</ele>
        <time>2019-02-25T08:59:10Z</time>
      </trkpt>
      <trkpt lat="43.98613" lon="5.12106">
        <ele>288.53</ele>
        <time>2019-02-25T08:59:11Z</time>
      </trkpt>
      <trkpt lat="43.98606" lon="5.1211">
        <ele>286.13</ele>
        <time>2019-02-25T08:59:30Z</time>
      </trkpt>
      <trkpt lat="43.98602" lon="5.1211">
        <ele>283.73</ele>
        <time>2019-02-25T08:59:52Z</time>
      </trkpt>
      <trkpt lat="43.98602" lon="5.12104">
        <ele>281.8</ele>
        <time>2019-02-25T09:00:16Z</time>
      </trkpt>
      <trkpt lat="43.98605" lon="5.12101">
        <ele>281.32</ele>
        <time>2019-02-25T09:00:36Z</time>
      </trkpt>
      <trkpt lat="43.9861" lon="5.12091">
        <ele>280.36</ele>
        <time>2019-02-25T09:00:57Z</time>
      </trkpt>
      <trkpt lat="43.98608" lon="5.12091">
        <ele>280.36</ele>
        <time>2019-02-25T09:01:39Z</time>
      </trkpt>
      <trkpt lat="43.98615" lon="5.12096">
        <ele>280.36</ele>
        <time>2019-02-25T09:01:52Z</time>
      </trkpt>
      <trkpt lat="43.98616" lon="5.12091">
        <ele>280.36</ele>
        <time>2019-02-25T09:01:56Z</time>
      </trkpt>
      <trkpt lat="43.98617" lon="5.1207">
        <ele>280.36</ele>
        <time>2019-02-25T09:02:12Z</time>
      </trkpt>
      <trkpt lat="43.98627" lon="5.12082">
        <ele>280.84</ele>
        <time>2019-02-25T09:02:33Z</time>
      </trkpt>
      <trkpt lat="43.98628" lon="5.12089">
        <ele>284.21</ele>
        <time>2019-02-25T09:02:50Z</time>
      </trkpt>
      <trkpt lat="43.98625" lon="5.12087">
        <ele>286.61</ele>
        <time>2019-02-25T09:03:11Z</time>
      </trkpt>
      <trkpt lat="43.98625" lon="5.12093">
        <ele>289.49</ele>
        <time>2019-02-25T09:03:25Z</time>
      </trkpt>
      <trkpt lat="43.98618" lon="5.12102">
        <ele>290.46</ele>
        <time>2019-02-25T09:03:49Z</time>
      </trkpt>
      <trkpt lat="43.98617" lon="5.12108">
        <ele>289.97</ele>
        <time>2019-02-25T09:04:23Z</time>
      </trkpt>
      <trkpt lat="43.98618" lon="5.12106">
        <ele>290.46</ele>
        <time>2019-02-25T09:04:53Z</time>
      </trkpt>
      <trkpt lat="43.98622" lon="5.12109">
        <ele>292.38</ele>
        <time>2019-02-25T09:05:13Z</time>
      </trkpt>
      <trkpt lat="43.98617" lon="5.12122">
        <ele>293.34</ele>
        <time>2019-02-25T09:05:32Z</time>
      </trkpt>
      <trkpt lat="43.98609" lon="5.12133">
        <ele>293.82</ele>
        <time>2019-02-25T09:05:44Z</time>
      </trkpt>
      <trkpt lat="43.98606" lon="5.12136">
        <ele>293.82</ele>
        <time>2019-02-25T09:05:46Z</time>
      </trkpt>
      <trkpt lat="43.98599" lon="5.12162">
        <ele>293.82</ele>
        <time>2019-02-25T09:06:02Z</time>
      </trkpt>
      <trkpt lat="43.98598" lon="5.12175">
        <ele>293.34</ele>
        <time>2019-02-25T09:06:12Z</time>
      </trkpt>
      <trkpt lat="43.98598" lon="5.12182">
        <ele>293.34</ele>
        <time>2019-02-25T09:06:16Z</time>
      </trkpt>
      <trkpt lat="43.986" lon="5.12202">
        <ele>293.34</ele>
        <time>2019-02-25T09:06:31Z</time>
      </trkpt>
      <trkpt lat="43.98593" lon="5.12225">
        <ele>294.3</ele>
        <time>2019-02-25T09:06:48Z</time>
      </trkpt>
      <trkpt lat="43.98592" lon="5.12229">
        <ele>294.3</ele>
        <time>2019-02-25T09:06:51Z</time>
      </trkpt>
      <trkpt lat="43.98591" lon="5.12231">
        <ele>294.3</ele>
        <time>2019-02-25T09:06:53Z</time>
      </trkpt>
      <trkpt lat="43.98587" lon="5.12253">
        <ele>294.78</ele>
        <time>2019-02-25T09:07:09Z</time>
      </trkpt>
      <trkpt lat="43.98579" lon="5.1228">
        <ele>294.3</ele>
        <time>2019-02-25T09:07:28Z</time>
      </trkpt>
      <trkpt lat="43.98577" lon="5.12303">
        <ele>293.82</ele>
        <time>2019-02-25T09:07:44Z</time>
      </trkpt>
      <trkpt lat="43.98576" lon="5.12308">
        <ele>293.82</ele>
        <time>2019-02-25T09:07:47Z</time>
      </trkpt>
      <trkpt lat="43.98564" lon="5.12327">
        <ele>293.82</ele>
        <time>2019-02-25T09:08:03Z</time>
      </trkpt>
      <trkpt lat="43.98559" lon="5.12338">
        <ele>293.82</ele>
        <time>2019-02-25T09:08:12Z</time>
      </trkpt>
      <trkpt lat="43.98556" lon="5.1234">
        <ele>293.82</ele>
        <time>2019-02-25T09:08:15Z</time>
      </trkpt>
      <trkpt lat="43.98552" lon="5.12347">
        <ele>293.82</ele>
        <time>2019-02-25T09:08:20Z</time>
      </trkpt>
      <trkpt lat="43.98544" lon="5.12357">
        <ele>293.82</ele>
        <time>2019-02-25T09:08:29Z</time>
      </trkpt>
      <trkpt lat="43.98535" lon="5.12379">
        <ele>293.82</ele>
        <time>2019-02-25T09:08:46Z</time>
      </trkpt>
      <trkpt lat="43.98525" lon="5.12401">
        <ele>293.82</ele>
        <time>2019-02-25T09:09:04Z</time>
      </trkpt>
      <trkpt lat="43.98522" lon="5.12411">
        <ele>293.34</ele>
        <time>2019-02-25T09:09:12Z</time>
      </trkpt>
      <trkpt lat="43.98529" lon="5.1244">
        <ele>292.38</ele>
        <time>2019-02-25T09:09:32Z</time>
      </trkpt>
      <trkpt lat="43.98537" lon="5.12465">
        <ele>291.42</ele>
        <time>2019-02-25T09:09:51Z</time>
      </trkpt>
      <trkpt lat="43.98542" lon="5.12473">
        <ele>292.38</ele>
        <time>2019-02-25T09:10:01Z</time>
      </trkpt>
      <trkpt lat="43.98544" lon="5.12479">
        <ele>292.38</ele>
        <time>2019-02-25T09:10:05Z</time>
      </trkpt>
      <trkpt lat="43.98545" lon="5.12499">
        <ele>290.46</ele>
        <time>2019-02-25T09:10:20Z</time>
      </trkpt>
      <trkpt lat="43.98535" lon="5.12505">
        <ele>289.01</ele>
        <time>2019-02-25T09:10:38Z</time>
      </trkpt>
      <trkpt lat="43.98517" lon="5.12504">
        <ele>288.05</ele>
        <time>2019-02-25T09:10:56Z</time>
      </trkpt>
      <trkpt lat="43.98499" lon="5.12501">
        <ele>287.57</ele>
        <time>2019-02-25T09:11:12Z</time>
      </trkpt>
      <trkpt lat="43.98482" lon="5.12506">
        <ele>288.05</ele>
        <time>2019-02-25T09:11:29Z</time>
      </trkpt>
      <trkpt lat="43.98479" lon="5.12509">
        <ele>288.05</ele>
        <time>2019-02-25T09:11:32Z</time>
      </trkpt>
      <trkpt lat="43.98471" lon="5.12521">
        <ele>288.05</ele>
        <time>2019-02-25T09:11:44Z</time>
      </trkpt>
      <trkpt lat="43.9847" lon="5.12524">
        <ele>288.05</ele>
        <time>2019-02-25T09:11:46Z</time>
      </trkpt>
      <trkpt lat="43.98466" lon="5.12549">
        <ele>286.61</ele>
        <time>2019-02-25T09:12:04Z</time>
      </trkpt>
      <trkpt lat="43.9846" lon="5.12559">
        <ele>285.65</ele>
        <time>2019-02-25T09:12:13Z</time>
      </trkpt>
      <trkpt lat="43.98457" lon="5.12578">
        <ele>284.69</ele>
        <time>2019-02-25T09:12:30Z</time>
      </trkpt>
      <trkpt lat="43.98451" lon="5.12597">
        <ele>283.25</ele>
        <time>2019-02-25T09:12:47Z</time>
      </trkpt>
      <trkpt lat="43.98443" lon="5.12621">
        <ele>281.32</ele>
        <time>2019-02-25T09:13:09Z</time>
      </trkpt>
      <trkpt lat="43.98437" lon="5.12642">
        <ele>279.88</ele>
        <time>2019-02-25T09:13:27Z</time>
      </trkpt>
      <trkpt lat="43.98427" lon="5.1265">
        <ele>279.88</ele>
        <time>2019-02-25T09:13:37Z</time>
      </trkpt>
      <trkpt lat="43.98424" lon="5.12652">
        <ele>279.88</ele>
        <time>2019-02-25T09:13:39Z</time>
      </trkpt>
      <trkpt lat="43.98413" lon="5.12673">
        <ele>279.4</ele>
        <time>2019-02-25T09:13:57Z</time>
      </trkpt>
      <trkpt lat="43.98412" lon="5.12694">
        <ele>278.92</ele>
        <time>2019-02-25T09:14:13Z</time>
      </trkpt>
      <trkpt lat="43.98411" lon="5.12717">
        <ele>278.44</ele>
        <time>2019-02-25T09:14:29Z</time>
      </trkpt>
      <trkpt lat="43.98413" lon="5.12721">
        <ele>278.44</ele>
        <time>2019-02-25T09:14:32Z</time>
      </trkpt>
      <trkpt lat="43.9842" lon="5.12737">
        <ele>277</ele>
        <time>2019-02-25T09:14:47Z</time>
      </trkpt>
      <trkpt lat="43.98432" lon="5.12758">
        <ele>276.52</ele>
        <time>2019-02-25T09:15:05Z</time>
      </trkpt>
      <trkpt lat="43.98441" lon="5.12776">
        <ele>276.04</ele>
        <time>2019-02-25T09:15:21Z</time>
      </trkpt>
      <trkpt lat="43.98443" lon="5.12809">
        <ele>276.04</ele>
        <time>2019-02-25T09:15:45Z</time>
      </trkpt>
      <trkpt lat="43.9843" lon="5.12822">
        <ele>276.52</ele>
        <time>2019-02-25T09:16:01Z</time>
      </trkpt>
      <trkpt lat="43.98428" lon="5.12824">
        <ele>276.52</ele>
        <time>2019-02-25T09:16:03Z</time>
      </trkpt>
      <trkpt lat="43.98423" lon="5.12827">
        <ele>276.52</ele>
        <time>2019-02-25T09:16:08Z</time>
      </trkpt>
      <trkpt lat="43.9842" lon="5.12829">
        <ele>276.52</ele>
        <time>2019-02-25T09:16:10Z</time>
      </trkpt>
      <trkpt lat="43.98418" lon="5.12829">
        <ele>276.52</ele>
        <time>2019-02-25T09:16:12Z</time>
      </trkpt>
      <trkpt lat="43.98401" lon="5.12846">
        <ele>277</ele>
        <time>2019-02-25T09:16:31Z</time>
      </trkpt>
      <trkpt lat="43.98394" lon="5.12863">
        <ele>277</ele>
        <time>2019-02-25T09:16:45Z</time>
      </trkpt>
      <trkpt lat="43.98387" lon="5.12874">
        <ele>276.52</ele>
        <time>2019-02-25T09:17:03Z</time>
      </trkpt>
      <trkpt lat="43.98367" lon="5.12881">
        <ele>275.56</ele>
        <time>2019-02-25T09:17:22Z</time>
      </trkpt>
      <trkpt lat="43.9835" lon="5.12886">
        <ele>275.56</ele>
        <time>2019-02-25T09:17:41Z</time>
      </trkpt>
      <trkpt lat="43.98347" lon="5.12895">
        <ele>276.04</ele>
        <time>2019-02-25T09:18:01Z</time>
      </trkpt>
      <trkpt lat="43.98342" lon="5.12897">
        <ele>275.07</ele>
        <time>2019-02-25T09:18:21Z</time>
      </trkpt>
      <trkpt lat="43.98337" lon="5.12902">
        <ele>275.07</ele>
        <time>2019-02-25T09:18:33Z</time>
      </trkpt>
      <trkpt lat="43.98338" lon="5.12903">
        <ele>275.07</ele>
        <time>2019-02-25T09:18:55Z</time>
      </trkpt>
      <trkpt lat="43.98338" lon="5.12902">
        <ele>275.07</ele>
        <time>2019-02-25T09:22:08Z</time>
      </trkpt>
      <trkpt lat="43.98336" lon="5.12903">
        <ele>275.07</ele>
        <time>2019-02-25T09:23:34Z</time>
      </trkpt>
      <trkpt lat="43.98338" lon="5.12903">
        <ele>275.07</ele>
        <time>2019-02-25T09:25:56Z</time>
      </trkpt>
      <trkpt lat="43.98339" lon="5.12901">
        <ele>275.07</ele>
        <time>2019-02-25T09:28:05Z</time>
      </trkpt>
      <trkpt lat="43.98337" lon="5.12903">
        <ele>275.07</ele>
        <time>2019-02-25T09:32:43Z</time>
      </trkpt>
      <trkpt lat="43.98337" lon="5.12899">
        <ele>275.07</ele>
        <time>2019-02-25T09:33:14Z</time>
      </trkpt>
      <trkpt lat="43.98336" lon="5.12906">
        <ele>275.07</ele>
        <time>2019-02-25T09:33:44Z</time>
      </trkpt>
      <trkpt lat="43.98338" lon="5.12907">
        <ele>275.07</ele>
        <time>2019-02-25T09:34:40Z</time>
      </trkpt>
      <trkpt lat="43.98338" lon="5.12906">
        <ele>275.07</ele>
        <time>2019-02-25T09:35:09Z</time>
      </trkpt>
      <trkpt lat="43.9834" lon="5.12911">
        <ele>275.07</ele>
        <time>2019-02-25T09:35:29Z</time>
      </trkpt>
      <trkpt lat="43.98343" lon="5.12925">
        <ele>275.07</ele>
        <time>2019-02-25T09:35:47Z</time>
      </trkpt>
      <trkpt lat="43.98346" lon="5.12941">
        <ele>275.07</ele>
        <time>2019-02-25T09:36:07Z</time>
      </trkpt>
      <trkpt lat="43.98341" lon="5.12953">
        <ele>277.96</ele>
        <time>2019-02-25T09:36:21Z</time>
      </trkpt>
      <trkpt lat="43.98335" lon="5.12969">
        <ele>278.92</ele>
        <time>2019-02-25T09:36:40Z</time>
      </trkpt>
      <trkpt lat="43.98327" lon="5.12991">
        <ele>279.4</ele>
        <time>2019-02-25T09:37:02Z</time>
      </trkpt>
      <trkpt lat="43.98315" lon="5.13001">
        <ele>280.84</ele>
        <time>2019-02-25T09:37:21Z</time>
      </trkpt>
      <trkpt lat="43.98323" lon="5.12995">
        <ele>280.84</ele>
        <time>2019-02-25T09:37:37Z</time>
      </trkpt>
      <trkpt lat="43.9833" lon="5.12986">
        <ele>279.88</ele>
        <time>2019-02-25T09:37:46Z</time>
      </trkpt>
      <trkpt lat="43.98338" lon="5.1298">
        <ele>279.88</ele>
        <time>2019-02-25T09:38:05Z</time>
      </trkpt>
      <trkpt lat="43.98335" lon="5.12999">
        <ele>282.77</ele>
        <time>2019-02-25T09:38:25Z</time>
      </trkpt>
      <trkpt lat="43.98327" lon="5.13016">
        <ele>285.17</ele>
        <time>2019-02-25T09:38:45Z</time>
      </trkpt>
      <trkpt lat="43.98319" lon="5.1303">
        <ele>287.09</ele>
        <time>2019-02-25T09:39:03Z</time>
      </trkpt>
      <trkpt lat="43.98317" lon="5.13047">
        <ele>289.97</ele>
        <time>2019-02-25T09:39:26Z</time>
      </trkpt>
      <trkpt lat="43.98325" lon="5.13068">
        <ele>292.86</ele>
        <time>2019-02-25T09:39:46Z</time>
      </trkpt>
      <trkpt lat="43.98336" lon="5.13082">
        <ele>294.78</ele>
        <time>2019-02-25T09:40:09Z</time>
      </trkpt>
      <trkpt lat="43.98343" lon="5.13097">
        <ele>297.18</ele>
        <time>2019-02-25T09:40:29Z</time>
      </trkpt>
      <trkpt lat="43.9834" lon="5.13112">
        <ele>300.07</ele>
        <time>2019-02-25T09:40:50Z</time>
      </trkpt>
      <trkpt lat="43.98347" lon="5.13116">
        <ele>302.47</ele>
        <time>2019-02-25T09:41:09Z</time>
      </trkpt>
      <trkpt lat="43.98358" lon="5.13125">
        <ele>303.91</ele>
        <time>2019-02-25T09:41:31Z</time>
      </trkpt>
      <trkpt lat="43.98357" lon="5.1315">
        <ele>305.84</ele>
        <time>2019-02-25T09:41:55Z</time>
      </trkpt>
      <trkpt lat="43.98354" lon="5.13172">
        <ele>306.32</ele>
        <time>2019-02-25T09:42:16Z</time>
      </trkpt>
      <trkpt lat="43.98352" lon="5.13181">
        <ele>307.28</ele>
        <time>2019-02-25T09:42:41Z</time>
      </trkpt>
      <trkpt lat="43.98353" lon="5.13181">
        <ele>307.28</ele>
        <time>2019-02-25T09:43:08Z</time>
      </trkpt>
      <trkpt lat="43.98353" lon="5.13181">
        <ele>306.8</ele>
        <time>2019-02-25T09:43:32Z</time>
      </trkpt>
      <trkpt lat="43.98353" lon="5.1318">
        <ele>306.8</ele>
        <time>2019-02-25T09:43:56Z</time>
      </trkpt>
      <trkpt lat="43.98345" lon="5.13181">
        <ele>306.8</ele>
        <time>2019-02-25T09:44:23Z</time>
      </trkpt>
      <trkpt lat="43.98327" lon="5.13177">
        <ele>306.8</ele>
        <time>2019-02-25T09:44:40Z</time>
      </trkpt>
      <trkpt lat="43.98315" lon="5.13179">
        <ele>304.88</ele>
        <time>2019-02-25T09:44:53Z</time>
      </trkpt>
      <trkpt lat="43.98299" lon="5.1319">
        <ele>302.95</ele>
        <time>2019-02-25T09:45:09Z</time>
      </trkpt>
      <trkpt lat="43.9829" lon="5.13195">
        <ele>301.99</ele>
        <time>2019-02-25T09:45:18Z</time>
      </trkpt>
      <trkpt lat="43.98276" lon="5.13206">
        <ele>301.03</ele>
        <time>2019-02-25T09:45:36Z</time>
      </trkpt>
      <trkpt lat="43.98263" lon="5.13212">
        <ele>299.59</ele>
        <time>2019-02-25T09:45:50Z</time>
      </trkpt>
      <trkpt lat="43.98251" lon="5.13212">
        <ele>298.63</ele>
        <time>2019-02-25T09:46:02Z</time>
      </trkpt>
      <trkpt lat="43.98233" lon="5.13214">
        <ele>297.18</ele>
        <time>2019-02-25T09:46:21Z</time>
      </trkpt>
      <trkpt lat="43.98214" lon="5.1322">
        <ele>295.74</ele>
        <time>2019-02-25T09:46:42Z</time>
      </trkpt>
      <trkpt lat="43.98197" lon="5.13228">
        <ele>293.82</ele>
        <time>2019-02-25T09:46:56Z</time>
      </trkpt>
      <trkpt lat="43.98185" lon="5.13241">
        <ele>291.42</ele>
        <time>2019-02-25T09:47:11Z</time>
      </trkpt>
      <trkpt lat="43.98173" lon="5.13249">
        <ele>289.97</ele>
        <time>2019-02-25T09:47:26Z</time>
      </trkpt>
      <trkpt lat="43.98159" lon="5.13258">
        <ele>288.53</ele>
        <time>2019-02-25T09:47:39Z</time>
      </trkpt>
      <trkpt lat="43.98135" lon="5.13264">
        <ele>286.61</ele>
        <time>2019-02-25T09:48:00Z</time>
      </trkpt>
      <trkpt lat="43.98118" lon="5.13272">
        <ele>284.69</ele>
        <time>2019-02-25T09:48:21Z</time>
      </trkpt>
      <trkpt lat="43.981" lon="5.13266">
        <ele>281.8</ele>
        <time>2019-02-25T09:48:41Z</time>
      </trkpt>
      <trkpt lat="43.98085" lon="5.13278">
        <ele>278.44</ele>
        <time>2019-02-25T09:49:01Z</time>
      </trkpt>
      <trkpt lat="43.98073" lon="5.13287">
        <ele>276.52</ele>
        <time>2019-02-25T09:49:19Z</time>
      </trkpt>
      <trkpt lat="43.98058" lon="5.13296">
        <ele>275.07</ele>
        <time>2019-02-25T09:49:37Z</time>
      </trkpt>
      <trkpt lat="43.98046" lon="5.13296">
        <ele>275.07</ele>
        <time>2019-02-25T09:49:53Z</time>
      </trkpt>
      <trkpt lat="43.9804" lon="5.13292">
        <ele>276.04</ele>
        <time>2019-02-25T09:50:13Z</time>
      </trkpt>
      <trkpt lat="43.9803" lon="5.13301">
        <ele>277</ele>
        <time>2019-02-25T09:50:43Z</time>
      </trkpt>
      <trkpt lat="43.98017" lon="5.13307">
        <ele>279.88</ele>
        <time>2019-02-25T09:51:02Z</time>
      </trkpt>
      <trkpt lat="43.98004" lon="5.13318">
        <ele>282.77</ele>
        <time>2019-02-25T09:51:23Z</time>
      </trkpt>
      <trkpt lat="43.97992" lon="5.13327">
        <ele>286.13</ele>
        <time>2019-02-25T09:51:46Z</time>
      </trkpt>
      <trkpt lat="43.97983" lon="5.13334">
        <ele>289.01</ele>
        <time>2019-02-25T09:52:07Z</time>
      </trkpt>
      <trkpt lat="43.9797" lon="5.13335">
        <ele>292.38</ele>
        <time>2019-02-25T09:52:29Z</time>
      </trkpt>
      <trkpt lat="43.97959" lon="5.13336">
        <ele>295.26</ele>
        <time>2019-02-25T09:52:50Z</time>
      </trkpt>
      <trkpt lat="43.9795" lon="5.13335">
        <ele>297.67</ele>
        <time>2019-02-25T09:53:11Z</time>
      </trkpt>
      <trkpt lat="43.9794" lon="5.1333">
        <ele>300.55</ele>
        <time>2019-02-25T09:53:30Z</time>
      </trkpt>
      <trkpt lat="43.9793" lon="5.1333">
        <ele>302.95</ele>
        <time>2019-02-25T09:53:51Z</time>
      </trkpt>
      <trkpt lat="43.97918" lon="5.13316">
        <ele>304.88</ele>
        <time>2019-02-25T09:54:14Z</time>
      </trkpt>
      <trkpt lat="43.9791" lon="5.1331">
        <ele>305.84</ele>
        <time>2019-02-25T09:54:31Z</time>
      </trkpt>
      <trkpt lat="43.97908" lon="5.13311">
        <ele>305.36</ele>
        <time>2019-02-25T09:55:02Z</time>
      </trkpt>
      <trkpt lat="43.9791" lon="5.13314">
        <ele>305.84</ele>
        <time>2019-02-25T09:55:27Z</time>
      </trkpt>
      <trkpt lat="43.9791" lon="5.13314">
        <ele>305.84</ele>
        <time>2019-02-25T09:55:57Z</time>
      </trkpt>
      <trkpt lat="43.97912" lon="5.13316">
        <ele>305.84</ele>
        <time>2019-02-25T09:56:30Z</time>
      </trkpt>
      <trkpt lat="43.97912" lon="5.13317">
        <ele>305.84</ele>
        <time>2019-02-25T09:57:13Z</time>
      </trkpt>
      <trkpt lat="43.97903" lon="5.13317">
        <ele>305.84</ele>
        <time>2019-02-25T09:57:44Z</time>
      </trkpt>
      <trkpt lat="43.97883" lon="5.13319">
        <ele>305.36</ele>
        <time>2019-02-25T09:58:03Z</time>
      </trkpt>
      <trkpt lat="43.97864" lon="5.13319">
        <ele>304.88</ele>
        <time>2019-02-25T09:58:20Z</time>
      </trkpt>
      <trkpt lat="43.97841" lon="5.1332">
        <ele>304.39</ele>
        <time>2019-02-25T09:58:40Z</time>
      </trkpt>
      <trkpt lat="43.97827" lon="5.13328">
        <ele>303.91</ele>
        <time>2019-02-25T09:58:57Z</time>
      </trkpt>
      <trkpt lat="43.97813" lon="5.13336">
        <ele>303.43</ele>
        <time>2019-02-25T09:59:13Z</time>
      </trkpt>
      <trkpt lat="43.97796" lon="5.13341">
        <ele>302.95</ele>
        <time>2019-02-25T09:59:29Z</time>
      </trkpt>
      <trkpt lat="43.97782" lon="5.13349">
        <ele>302.47</ele>
        <time>2019-02-25T09:59:43Z</time>
      </trkpt>
      <trkpt lat="43.97772" lon="5.13355">
        <ele>301.51</ele>
        <time>2019-02-25T09:59:54Z</time>
      </trkpt>
      <trkpt lat="43.97757" lon="5.13357">
        <ele>301.03</ele>
        <time>2019-02-25T10:00:08Z</time>
      </trkpt>
      <trkpt lat="43.97745" lon="5.13363">
        <ele>301.03</ele>
        <time>2019-02-25T10:00:20Z</time>
      </trkpt>
      <trkpt lat="43.97735" lon="5.13371">
        <ele>300.55</ele>
        <time>2019-02-25T10:00:30Z</time>
      </trkpt>
      <trkpt lat="43.9772" lon="5.13386">
        <ele>300.55</ele>
        <time>2019-02-25T10:00:47Z</time>
      </trkpt>
      <trkpt lat="43.9771" lon="5.13396">
        <ele>300.07</ele>
        <time>2019-02-25T10:00:58Z</time>
      </trkpt>
      <trkpt lat="43.97705" lon="5.13402">
        <ele>300.07</ele>
        <time>2019-02-25T10:01:04Z</time>
      </trkpt>
      <trkpt lat="43.97692" lon="5.13423">
        <ele>301.03</ele>
        <time>2019-02-25T10:01:22Z</time>
      </trkpt>
      <trkpt lat="43.97682" lon="5.13437">
        <ele>301.03</ele>
        <time>2019-02-25T10:01:36Z</time>
      </trkpt>
      <trkpt lat="43.97677" lon="5.13451">
        <ele>301.03</ele>
        <time>2019-02-25T10:01:51Z</time>
      </trkpt>
      <trkpt lat="43.9766" lon="5.13459">
        <ele>301.03</ele>
        <time>2019-02-25T10:02:09Z</time>
      </trkpt>
      <trkpt lat="43.97651" lon="5.13452">
        <ele>300.07</ele>
        <time>2019-02-25T10:02:21Z</time>
      </trkpt>
      <trkpt lat="43.97649" lon="5.1345">
        <ele>300.07</ele>
        <time>2019-02-25T10:02:23Z</time>
      </trkpt>
      <trkpt lat="43.97651" lon="5.13442">
        <ele>299.59</ele>
        <time>2019-02-25T10:02:38Z</time>
      </trkpt>
      <trkpt lat="43.97651" lon="5.13419">
        <ele>298.63</ele>
        <time>2019-02-25T10:02:56Z</time>
      </trkpt>
      <trkpt lat="43.97638" lon="5.1342">
        <ele>299.59</ele>
        <time>2019-02-25T10:03:16Z</time>
      </trkpt>
      <trkpt lat="43.97633" lon="5.13422">
        <ele>300.55</ele>
        <time>2019-02-25T10:03:21Z</time>
      </trkpt>
      <trkpt lat="43.97618" lon="5.13431">
        <ele>301.51</ele>
        <time>2019-02-25T10:03:37Z</time>
      </trkpt>
      <trkpt lat="43.97607" lon="5.13452">
        <ele>303.43</ele>
        <time>2019-02-25T10:04:01Z</time>
      </trkpt>
      <trkpt lat="43.97598" lon="5.13474">
        <ele>305.84</ele>
        <time>2019-02-25T10:04:23Z</time>
      </trkpt>
      <trkpt lat="43.9759" lon="5.13494">
        <ele>308.72</ele>
        <time>2019-02-25T10:04:45Z</time>
      </trkpt>
      <trkpt lat="43.97581" lon="5.13511">
        <ele>310.64</ele>
        <time>2019-02-25T10:05:05Z</time>
      </trkpt>
      <trkpt lat="43.97574" lon="5.13529">
        <ele>313.05</ele>
        <time>2019-02-25T10:05:25Z</time>
      </trkpt>
      <trkpt lat="43.97566" lon="5.13548">
        <ele>314.97</ele>
        <time>2019-02-25T10:05:47Z</time>
      </trkpt>
      <trkpt lat="43.97559" lon="5.13563">
        <ele>316.41</ele>
        <time>2019-02-25T10:06:08Z</time>
      </trkpt>
      <trkpt lat="43.97547" lon="5.13581">
        <ele>318.33</ele>
        <time>2019-02-25T10:06:29Z</time>
      </trkpt>
      <trkpt lat="43.97536" lon="5.13601">
        <ele>320.74</ele>
        <time>2019-02-25T10:06:52Z</time>
      </trkpt>
      <trkpt lat="43.97527" lon="5.13611">
        <ele>322.66</ele>
        <time>2019-02-25T10:07:09Z</time>
      </trkpt>
      <trkpt lat="43.97514" lon="5.13632">
        <ele>325.54</ele>
        <time>2019-02-25T10:07:37Z</time>
      </trkpt>
      <trkpt lat="43.97504" lon="5.13644">
        <ele>328.91</ele>
        <time>2019-02-25T10:07:56Z</time>
      </trkpt>
      <trkpt lat="43.9749" lon="5.13654">
        <ele>331.79</ele>
        <time>2019-02-25T10:08:20Z</time>
      </trkpt>
      <trkpt lat="43.97478" lon="5.13658">
        <ele>334.68</ele>
        <time>2019-02-25T10:08:40Z</time>
      </trkpt>
      <trkpt lat="43.97465" lon="5.13671">
        <ele>338.04</ele>
        <time>2019-02-25T10:09:02Z</time>
      </trkpt>
      <trkpt lat="43.97453" lon="5.13677">
        <ele>340.44</ele>
        <time>2019-02-25T10:09:25Z</time>
      </trkpt>
      <trkpt lat="43.97449" lon="5.13679">
        <ele>341.89</ele>
        <time>2019-02-25T10:09:47Z</time>
      </trkpt>
      <trkpt lat="43.97447" lon="5.1368">
        <ele>341.89</ele>
        <time>2019-02-25T10:10:13Z</time>
      </trkpt>
      <trkpt lat="43.97448" lon="5.13682">
        <ele>341.89</ele>
        <time>2019-02-25T10:10:36Z</time>
      </trkpt>
      <trkpt lat="43.97449" lon="5.1368">
        <ele>342.37</ele>
        <time>2019-02-25T10:11:05Z</time>
      </trkpt>
      <trkpt lat="43.97447" lon="5.13682">
        <ele>341.89</ele>
        <time>2019-02-25T10:11:39Z</time>
      </trkpt>
      <trkpt lat="43.97444" lon="5.13685">
        <ele>341.89</ele>
        <time>2019-02-25T10:12:13Z</time>
      </trkpt>
      <trkpt lat="43.97438" lon="5.13677">
        <ele>341.89</ele>
        <time>2019-02-25T10:12:38Z</time>
      </trkpt>
      <trkpt lat="43.9742" lon="5.13676">
        <ele>341.89</ele>
        <time>2019-02-25T10:13:03Z</time>
      </trkpt>
      <trkpt lat="43.97406" lon="5.13678">
        <ele>348.62</ele>
        <time>2019-02-25T10:13:22Z</time>
      </trkpt>
      <trkpt lat="43.97405" lon="5.13678">
        <ele>349.1</ele>
        <time>2019-02-25T10:13:23Z</time>
      </trkpt>
      <trkpt lat="43.97393" lon="5.13682">
        <ele>351.02</ele>
        <time>2019-02-25T10:13:41Z</time>
      </trkpt>
      <trkpt lat="43.97375" lon="5.1369">
        <ele>353.9</ele>
        <time>2019-02-25T10:14:07Z</time>
      </trkpt>
      <trkpt lat="43.97363" lon="5.13692">
        <ele>356.31</ele>
        <time>2019-02-25T10:14:26Z</time>
      </trkpt>
      <trkpt lat="43.97345" lon="5.13697">
        <ele>359.19</ele>
        <time>2019-02-25T10:14:49Z</time>
      </trkpt>
      <trkpt lat="43.97329" lon="5.13702">
        <ele>361.11</ele>
        <time>2019-02-25T10:15:08Z</time>
      </trkpt>
      <trkpt lat="43.97319" lon="5.13706">
        <ele>362.55</ele>
        <time>2019-02-25T10:15:26Z</time>
      </trkpt>
      <trkpt lat="43.97305" lon="5.1371">
        <ele>364.48</ele>
        <time>2019-02-25T10:15:47Z</time>
      </trkpt>
      <trkpt lat="43.97289" lon="5.13717">
        <ele>366.4</ele>
        <time>2019-02-25T10:16:08Z</time>
      </trkpt>
      <trkpt lat="43.97276" lon="5.13725">
        <ele>367.84</ele>
        <time>2019-02-25T10:16:29Z</time>
      </trkpt>
      <trkpt lat="43.97276" lon="5.13727">
        <ele>368.32</ele>
        <time>2019-02-25T10:16:54Z</time>
      </trkpt>
      <trkpt lat="43.97271" lon="5.13731">
        <ele>368.8</ele>
        <time>2019-02-25T10:17:25Z</time>
      </trkpt>
      <trkpt lat="43.97266" lon="5.13727">
        <ele>369.28</ele>
        <time>2019-02-25T10:17:36Z</time>
      </trkpt>
      <trkpt lat="43.97251" lon="5.13728">
        <ele>371.21</ele>
        <time>2019-02-25T10:17:54Z</time>
      </trkpt>
      <trkpt lat="43.97239" lon="5.13727">
        <ele>374.09</ele>
        <time>2019-02-25T10:18:14Z</time>
      </trkpt>
      <trkpt lat="43.97224" lon="5.13731">
        <ele>376.97</ele>
        <time>2019-02-25T10:18:34Z</time>
      </trkpt>
      <trkpt lat="43.97207" lon="5.13734">
        <ele>379.86</ele>
        <time>2019-02-25T10:18:59Z</time>
      </trkpt>
      <trkpt lat="43.97195" lon="5.13733">
        <ele>382.26</ele>
        <time>2019-02-25T10:19:20Z</time>
      </trkpt>
      <trkpt lat="43.97182" lon="5.13733">
        <ele>385.15</ele>
        <time>2019-02-25T10:19:43Z</time>
      </trkpt>
      <trkpt lat="43.97179" lon="5.13735">
        <ele>385.63</ele>
        <time>2019-02-25T10:20:13Z</time>
      </trkpt>
      <trkpt lat="43.97184" lon="5.13737">
        <ele>385.15</ele>
        <time>2019-02-25T10:20:45Z</time>
      </trkpt>
      <trkpt lat="43.97181" lon="5.13735">
        <ele>385.15</ele>
        <time>2019-02-25T10:21:21Z</time>
      </trkpt>
      <trkpt lat="43.97173" lon="5.13736">
        <ele>386.11</ele>
        <time>2019-02-25T10:21:43Z</time>
      </trkpt>
      <trkpt lat="43.97161" lon="5.13734">
        <ele>388.99</ele>
        <time>2019-02-25T10:22:00Z</time>
      </trkpt>
      <trkpt lat="43.97153" lon="5.13749">
        <ele>392.36</ele>
        <time>2019-02-25T10:22:20Z</time>
      </trkpt>
      <trkpt lat="43.97143" lon="5.13752">
        <ele>395.24</ele>
        <time>2019-02-25T10:22:39Z</time>
      </trkpt>
      <trkpt lat="43.9713" lon="5.13754">
        <ele>397.64</ele>
        <time>2019-02-25T10:23:00Z</time>
      </trkpt>
      <trkpt lat="43.97121" lon="5.13758">
        <ele>399.57</ele>
        <time>2019-02-25T10:23:19Z</time>
      </trkpt>
      <trkpt lat="43.9712" lon="5.1376">
        <ele>399.57</ele>
        <time>2019-02-25T10:23:47Z</time>
      </trkpt>
      <trkpt lat="43.97121" lon="5.1376">
        <ele>400.05</ele>
        <time>2019-02-25T10:24:12Z</time>
      </trkpt>
      <trkpt lat="43.97124" lon="5.13763">
        <ele>399.57</ele>
        <time>2019-02-25T10:24:41Z</time>
      </trkpt>
      <trkpt lat="43.97123" lon="5.13763">
        <ele>399.57</ele>
        <time>2019-02-25T10:25:10Z</time>
      </trkpt>
      <trkpt lat="43.97118" lon="5.13762">
        <ele>399.57</ele>
        <time>2019-02-25T10:25:36Z</time>
      </trkpt>
      <trkpt lat="43.97117" lon="5.13762">
        <ele>399.57</ele>
        <time>2019-02-25T10:25:37Z</time>
      </trkpt>
      <trkpt lat="43.97115" lon="5.13763">
        <ele>399.57</ele>
        <time>2019-02-25T10:25:40Z</time>
      </trkpt>
      <trkpt lat="43.97101" lon="5.13769">
        <ele>399.57</ele>
        <time>2019-02-25T10:25:54Z</time>
      </trkpt>
      <trkpt lat="43.97087" lon="5.13772">
        <ele>399.57</ele>
        <time>2019-02-25T10:26:07Z</time>
      </trkpt>
      <trkpt lat="43.97074" lon="5.13778">
        <ele>399.57</ele>
        <time>2019-02-25T10:26:21Z</time>
      </trkpt>
      <trkpt lat="43.97064" lon="5.1378">
        <ele>399.57</ele>
        <time>2019-02-25T10:26:35Z</time>
      </trkpt>
      <trkpt lat="43.97046" lon="5.13786">
        <ele>399.57</ele>
        <time>2019-02-25T10:26:53Z</time>
      </trkpt>
      <trkpt lat="43.97035" lon="5.13784">
        <ele>397.64</ele>
        <time>2019-02-25T10:27:12Z</time>
      </trkpt>
      <trkpt lat="43.97026" lon="5.13774">
        <ele>395.24</ele>
        <time>2019-02-25T10:27:33Z</time>
      </trkpt>
      <trkpt lat="43.97012" lon="5.13778">
        <ele>393.32</ele>
        <time>2019-02-25T10:27:51Z</time>
      </trkpt>
      <trkpt lat="43.96995" lon="5.13787">
        <ele>392.36</ele>
        <time>2019-02-25T10:28:09Z</time>
      </trkpt>
      <trkpt lat="43.96983" lon="5.13796">
        <ele>392.84</ele>
        <time>2019-02-25T10:28:23Z</time>
      </trkpt>
      <trkpt lat="43.96968" lon="5.13806">
        <ele>392.84</ele>
        <time>2019-02-25T10:28:43Z</time>
      </trkpt>
      <trkpt lat="43.96963" lon="5.1381">
        <ele>393.8</ele>
        <time>2019-02-25T10:29:06Z</time>
      </trkpt>
      <trkpt lat="43.96957" lon="5.13812">
        <ele>393.8</ele>
        <time>2019-02-25T10:29:35Z</time>
      </trkpt>
      <trkpt lat="43.9694" lon="5.13815">
        <ele>394.28</ele>
        <time>2019-02-25T10:29:56Z</time>
      </trkpt>
      <trkpt lat="43.96933" lon="5.13818">
        <ele>394.76</ele>
        <time>2019-02-25T10:30:16Z</time>
      </trkpt>
      <trkpt lat="43.96932" lon="5.13818">
        <ele>395.24</ele>
        <time>2019-02-25T10:30:44Z</time>
      </trkpt>
      <trkpt lat="43.96933" lon="5.13819">
        <ele>394.28</ele>
        <time>2019-02-25T10:31:14Z</time>
      </trkpt>
      <trkpt lat="43.96935" lon="5.1382">
        <ele>394.28</ele>
        <time>2019-02-25T10:31:47Z</time>
      </trkpt>
      <trkpt lat="43.96934" lon="5.13819">
        <ele>394.28</ele>
        <time>2019-02-25T10:31:51Z</time>
      </trkpt>
      <trkpt lat="43.96931" lon="5.13819">
        <ele>394.28</ele>
        <time>2019-02-25T10:31:53Z</time>
      </trkpt>
      <trkpt lat="43.96911" lon="5.13821">
        <ele>394.76</ele>
        <time>2019-02-25T10:32:13Z</time>
      </trkpt>
      <trkpt lat="43.96893" lon="5.13827">
        <ele>394.76</ele>
        <time>2019-02-25T10:32:33Z</time>
      </trkpt>
      <trkpt lat="43.96876" lon="5.13835">
        <ele>395.72</ele>
        <time>2019-02-25T10:32:51Z</time>
      </trkpt>
      <trkpt lat="43.96861" lon="5.13842">
        <ele>396.2</ele>
        <time>2019-02-25T10:33:08Z</time>
      </trkpt>
      <trkpt lat="43.96842" lon="5.13847">
        <ele>396.68</ele>
        <time>2019-02-25T10:33:27Z</time>
      </trkpt>
      <trkpt lat="43.96824" lon="5.13853">
        <ele>396.2</ele>
        <time>2019-02-25T10:33:46Z</time>
      </trkpt>
      <trkpt lat="43.96804" lon="5.13854">
        <ele>395.72</ele>
        <time>2019-02-25T10:34:04Z</time>
      </trkpt>
      <trkpt lat="43.96787" lon="5.13856">
        <ele>396.2</ele>
        <time>2019-02-25T10:34:20Z</time>
      </trkpt>
      <trkpt lat="43.96773" lon="5.13849">
        <ele>392.84</ele>
        <time>2019-02-25T10:34:40Z</time>
      </trkpt>
      <trkpt lat="43.96759" lon="5.13846">
        <ele>389.95</ele>
        <time>2019-02-25T10:34:57Z</time>
      </trkpt>
      <trkpt lat="43.96748" lon="5.13846">
        <ele>387.07</ele>
        <time>2019-02-25T10:35:18Z</time>
      </trkpt>
      <trkpt lat="43.96737" lon="5.13845">
        <ele>384.18</ele>
        <time>2019-02-25T10:35:37Z</time>
      </trkpt>
      <trkpt lat="43.96722" lon="5.13842">
        <ele>380.82</ele>
        <time>2019-02-25T10:35:58Z</time>
      </trkpt>
      <trkpt lat="43.96711" lon="5.13849">
        <ele>379.38</ele>
        <time>2019-02-25T10:36:17Z</time>
      </trkpt>
      <trkpt lat="43.96707" lon="5.13851">
        <ele>378.9</ele>
        <time>2019-02-25T10:36:39Z</time>
      </trkpt>
      <trkpt lat="43.96688" lon="5.13854">
        <ele>376.97</ele>
        <time>2019-02-25T10:36:59Z</time>
      </trkpt>
      <trkpt lat="43.96678" lon="5.13859">
        <ele>376.01</ele>
        <time>2019-02-25T10:37:09Z</time>
      </trkpt>
      <trkpt lat="43.96669" lon="5.13862">
        <ele>376.01</ele>
        <time>2019-02-25T10:37:19Z</time>
      </trkpt>
      <trkpt lat="43.96656" lon="5.13864">
        <ele>376.97</ele>
        <time>2019-02-25T10:37:32Z</time>
      </trkpt>
      <trkpt lat="43.96641" lon="5.13862">
        <ele>377.94</ele>
        <time>2019-02-25T10:37:45Z</time>
      </trkpt>
      <trkpt lat="43.96625" lon="5.13873">
        <ele>380.34</ele>
        <time>2019-02-25T10:38:06Z</time>
      </trkpt>
      <trkpt lat="43.9661" lon="5.1388">
        <ele>381.78</ele>
        <time>2019-02-25T10:38:23Z</time>
      </trkpt>
      <trkpt lat="43.96597" lon="5.13883">
        <ele>379.86</ele>
        <time>2019-02-25T10:38:37Z</time>
      </trkpt>
      <trkpt lat="43.96584" lon="5.13889">
        <ele>378.9</ele>
        <time>2019-02-25T10:38:53Z</time>
      </trkpt>
      <trkpt lat="43.9658" lon="5.13888">
        <ele>378.9</ele>
        <time>2019-02-25T10:39:16Z</time>
      </trkpt>
      <trkpt lat="43.96576" lon="5.13889">
        <ele>378.9</ele>
        <time>2019-02-25T10:39:19Z</time>
      </trkpt>
      <trkpt lat="43.96559" lon="5.13903">
        <ele>378.42</ele>
        <time>2019-02-25T10:39:35Z</time>
      </trkpt>
      <trkpt lat="43.96553" lon="5.13917">
        <ele>377.94</ele>
        <time>2019-02-25T10:39:55Z</time>
      </trkpt>
      <trkpt lat="43.96542" lon="5.13911">
        <ele>374.57</ele>
        <time>2019-02-25T10:40:20Z</time>
      </trkpt>
      <trkpt lat="43.96539" lon="5.13912">
        <ele>374.09</ele>
        <time>2019-02-25T10:40:42Z</time>
      </trkpt>
      <trkpt lat="43.96544" lon="5.13913">
        <ele>374.09</ele>
        <time>2019-02-25T10:41:08Z</time>
      </trkpt>
      <trkpt lat="43.96546" lon="5.13901">
        <ele>373.13</ele>
        <time>2019-02-25T10:41:23Z</time>
      </trkpt>
      <trkpt lat="43.96545" lon="5.13888">
        <ele>370.73</ele>
        <time>2019-02-25T10:41:37Z</time>
      </trkpt>
      <trkpt lat="43.96551" lon="5.13865">
        <ele>367.84</ele>
        <time>2019-02-25T10:41:53Z</time>
      </trkpt>
      <trkpt lat="43.96551" lon="5.13863">
        <ele>367.84</ele>
        <time>2019-02-25T10:41:54Z</time>
      </trkpt>
      <trkpt lat="43.96553" lon="5.13857">
        <ele>367.84</ele>
        <time>2019-02-25T10:41:58Z</time>
      </trkpt>
      <trkpt lat="43.96563" lon="5.13845">
        <ele>367.36</ele>
        <time>2019-02-25T10:42:16Z</time>
      </trkpt>
      <trkpt lat="43.96555" lon="5.13846">
        <ele>367.36</ele>
        <time>2019-02-25T10:42:46Z</time>
      </trkpt>
      <trkpt lat="43.96557" lon="5.13836">
        <ele>366.88</ele>
        <time>2019-02-25T10:43:14Z</time>
      </trkpt>
      <trkpt lat="43.9656" lon="5.13831">
        <ele>366.88</ele>
        <time>2019-02-25T10:43:40Z</time>
      </trkpt>
      <trkpt lat="43.96559" lon="5.13839">
        <ele>366.88</ele>
        <time>2019-02-25T10:44:07Z</time>
      </trkpt>
      <trkpt lat="43.9656" lon="5.13842">
        <ele>366.88</ele>
        <time>2019-02-25T10:44:16Z</time>
      </trkpt>
      <trkpt lat="43.96563" lon="5.13844">
        <ele>366.88</ele>
        <time>2019-02-25T10:44:20Z</time>
      </trkpt>
      <trkpt lat="43.96561" lon="5.13853">
        <ele>367.36</ele>
        <time>2019-02-25T10:44:42Z</time>
      </trkpt>
      <trkpt lat="43.96556" lon="5.13859">
        <ele>367.36</ele>
        <time>2019-02-25T10:44:49Z</time>
      </trkpt>
      <trkpt lat="43.96556" lon="5.13854">
        <ele>366.88</ele>
        <time>2019-02-25T10:45:12Z</time>
      </trkpt>
      <trkpt lat="43.96556" lon="5.13841">
        <ele>367.36</ele>
        <time>2019-02-25T10:45:42Z</time>
      </trkpt>
      <trkpt lat="43.96557" lon="5.13835">
        <ele>367.36</ele>
        <time>2019-02-25T10:46:24Z</time>
      </trkpt>
      <trkpt lat="43.96554" lon="5.13836">
        <ele>366.88</ele>
        <time>2019-02-25T10:46:49Z</time>
      </trkpt>
      <trkpt lat="43.96552" lon="5.13842">
        <ele>366.88</ele>
        <time>2019-02-25T10:47:11Z</time>
      </trkpt>
      <trkpt lat="43.96553" lon="5.13848">
        <ele>366.88</ele>
        <time>2019-02-25T10:47:35Z</time>
      </trkpt>
      <trkpt lat="43.96544" lon="5.13857">
        <ele>366.88</ele>
        <time>2019-02-25T10:47:51Z</time>
      </trkpt>
      <trkpt lat="43.96542" lon="5.13865">
        <ele>367.36</ele>
        <time>2019-02-25T10:47:56Z</time>
      </trkpt>
      <trkpt lat="43.96539" lon="5.13882">
        <ele>367.36</ele>
        <time>2019-02-25T10:48:07Z</time>
      </trkpt>
      <trkpt lat="43.96538" lon="5.13895">
        <ele>368.32</ele>
        <time>2019-02-25T10:48:18Z</time>
      </trkpt>
      <trkpt lat="43.96544" lon="5.13906">
        <ele>371.21</ele>
        <time>2019-02-25T10:48:36Z</time>
      </trkpt>
      <trkpt lat="43.96544" lon="5.13914">
        <ele>373.61</ele>
        <time>2019-02-25T10:48:52Z</time>
      </trkpt>
      <trkpt lat="43.96532" lon="5.13928">
        <ele>374.09</ele>
        <time>2019-02-25T10:49:11Z</time>
      </trkpt>
      <trkpt lat="43.96521" lon="5.13946">
        <ele>376.01</ele>
        <time>2019-02-25T10:49:35Z</time>
      </trkpt>
      <trkpt lat="43.96519" lon="5.13969">
        <ele>378.42</ele>
        <time>2019-02-25T10:49:59Z</time>
      </trkpt>
      <trkpt lat="43.96516" lon="5.13989">
        <ele>380.82</ele>
        <time>2019-02-25T10:50:21Z</time>
      </trkpt>
      <trkpt lat="43.96509" lon="5.14012">
        <ele>383.22</ele>
        <time>2019-02-25T10:50:45Z</time>
      </trkpt>
      <trkpt lat="43.96499" lon="5.14034">
        <ele>385.63</ele>
        <time>2019-02-25T10:51:11Z</time>
      </trkpt>
      <trkpt lat="43.96494" lon="5.14056">
        <ele>387.55</ele>
        <time>2019-02-25T10:51:33Z</time>
      </trkpt>
      <trkpt lat="43.96488" lon="5.14083">
        <ele>389.47</ele>
        <time>2019-02-25T10:51:58Z</time>
      </trkpt>
      <trkpt lat="43.96481" lon="5.14105">
        <ele>391.39</ele>
        <time>2019-02-25T10:52:23Z</time>
      </trkpt>
      <trkpt lat="43.9647" lon="5.14118">
        <ele>392.84</ele>
        <time>2019-02-25T10:52:41Z</time>
      </trkpt>
      <trkpt lat="43.96462" lon="5.1413">
        <ele>393.8</ele>
        <time>2019-02-25T10:52:54Z</time>
      </trkpt>
      <trkpt lat="43.96451" lon="5.14142">
        <ele>394.28</ele>
        <time>2019-02-25T10:53:07Z</time>
      </trkpt>
      <trkpt lat="43.96442" lon="5.14149">
        <ele>395.24</ele>
        <time>2019-02-25T10:53:21Z</time>
      </trkpt>
      <trkpt lat="43.96435" lon="5.14161">
        <ele>395.72</ele>
        <time>2019-02-25T10:53:33Z</time>
      </trkpt>
      <trkpt lat="43.96428" lon="5.14165">
        <ele>396.2</ele>
        <time>2019-02-25T10:53:40Z</time>
      </trkpt>
      <trkpt lat="43.96419" lon="5.14161">
        <ele>397.16</ele>
        <time>2019-02-25T10:53:52Z</time>
      </trkpt>
      <trkpt lat="43.96419" lon="5.14164">
        <ele>398.12</ele>
        <time>2019-02-25T10:54:16Z</time>
      </trkpt>
      <trkpt lat="43.96413" lon="5.14163">
        <ele>398.6</ele>
        <time>2019-02-25T10:54:38Z</time>
      </trkpt>
      <trkpt lat="43.964" lon="5.14159">
        <ele>401.49</ele>
        <time>2019-02-25T10:54:59Z</time>
      </trkpt>
      <trkpt lat="43.96389" lon="5.1417">
        <ele>404.85</ele>
        <time>2019-02-25T10:55:16Z</time>
      </trkpt>
      <trkpt lat="43.96386" lon="5.14178">
        <ele>406.77</ele>
        <time>2019-02-25T10:55:29Z</time>
      </trkpt>
      <trkpt lat="43.96381" lon="5.14186">
        <ele>409.18</ele>
        <time>2019-02-25T10:55:45Z</time>
      </trkpt>
      <trkpt lat="43.96373" lon="5.14184">
        <ele>411.1</ele>
        <time>2019-02-25T10:56:00Z</time>
      </trkpt>
      <trkpt lat="43.96364" lon="5.14192">
        <ele>413.02</ele>
        <time>2019-02-25T10:56:17Z</time>
      </trkpt>
      <trkpt lat="43.9636" lon="5.14198">
        <ele>414.47</ele>
        <time>2019-02-25T10:56:29Z</time>
      </trkpt>
      <trkpt lat="43.96353" lon="5.14204">
        <ele>416.87</ele>
        <time>2019-02-25T10:56:45Z</time>
      </trkpt>
      <trkpt lat="43.96345" lon="5.14205">
        <ele>418.79</ele>
        <time>2019-02-25T10:57:00Z</time>
      </trkpt>
      <trkpt lat="43.9634" lon="5.14204">
        <ele>420.71</ele>
        <time>2019-02-25T10:57:17Z</time>
      </trkpt>
      <trkpt lat="43.96336" lon="5.14207">
        <ele>422.16</ele>
        <time>2019-02-25T10:57:36Z</time>
      </trkpt>
      <trkpt lat="43.96321" lon="5.14211">
        <ele>424.56</ele>
        <time>2019-02-25T10:57:54Z</time>
      </trkpt>
      <trkpt lat="43.96317" lon="5.14212">
        <ele>426</ele>
        <time>2019-02-25T10:58:04Z</time>
      </trkpt>
      <trkpt lat="43.96307" lon="5.14213">
        <ele>428.4</ele>
        <time>2019-02-25T10:58:19Z</time>
      </trkpt>
      <trkpt lat="43.96295" lon="5.14219">
        <ele>430.81</ele>
        <time>2019-02-25T10:58:39Z</time>
      </trkpt>
      <trkpt lat="43.963" lon="5.14214">
        <ele>430.81</ele>
        <time>2019-02-25T10:59:11Z</time>
      </trkpt>
      <trkpt lat="43.96299" lon="5.14217">
        <ele>430.81</ele>
        <time>2019-02-25T10:59:35Z</time>
      </trkpt>
      <trkpt lat="43.96298" lon="5.14218">
        <ele>430.81</ele>
        <time>2019-02-25T11:00:05Z</time>
      </trkpt>
      <trkpt lat="43.963" lon="5.1422">
        <ele>430.81</ele>
        <time>2019-02-25T11:00:35Z</time>
      </trkpt>
      <trkpt lat="43.96303" lon="5.14225">
        <ele>430.81</ele>
        <time>2019-02-25T11:01:10Z</time>
      </trkpt>
      <trkpt lat="43.96302" lon="5.14228">
        <ele>430.81</ele>
        <time>2019-02-25T11:01:38Z</time>
      </trkpt>
      <trkpt lat="43.9629" lon="5.14228">
        <ele>431.77</ele>
        <time>2019-02-25T11:02:04Z</time>
      </trkpt>
      <trkpt lat="43.96281" lon="5.1423">
        <ele>434.17</ele>
        <time>2019-02-25T11:02:17Z</time>
      </trkpt>
      <trkpt lat="43.96277" lon="5.14245">
        <ele>435.13</ele>
        <time>2019-02-25T11:02:31Z</time>
      </trkpt>
      <trkpt lat="43.96272" lon="5.14253">
        <ele>436.1</ele>
        <time>2019-02-25T11:02:42Z</time>
      </trkpt>
      <trkpt lat="43.96263" lon="5.1427">
        <ele>438.5</ele>
        <time>2019-02-25T11:03:02Z</time>
      </trkpt>
      <trkpt lat="43.96255" lon="5.14288">
        <ele>440.42</ele>
        <time>2019-02-25T11:03:25Z</time>
      </trkpt>
      <trkpt lat="43.96251" lon="5.14298">
        <ele>441.86</ele>
        <time>2019-02-25T11:03:43Z</time>
      </trkpt>
      <trkpt lat="43.96246" lon="5.14313">
        <ele>444.75</ele>
        <time>2019-02-25T11:04:03Z</time>
      </trkpt>
      <trkpt lat="43.96244" lon="5.14323">
        <ele>445.71</ele>
        <time>2019-02-25T11:04:14Z</time>
      </trkpt>
      <trkpt lat="43.96244" lon="5.14333">
        <ele>447.63</ele>
        <time>2019-02-25T11:04:31Z</time>
      </trkpt>
      <trkpt lat="43.96243" lon="5.14339">
        <ele>449.07</ele>
        <time>2019-02-25T11:04:46Z</time>
      </trkpt>
      <trkpt lat="43.96246" lon="5.14354">
        <ele>451.48</ele>
        <time>2019-02-25T11:05:06Z</time>
      </trkpt>
      <trkpt lat="43.96238" lon="5.14361">
        <ele>453.4</ele>
        <time>2019-02-25T11:05:19Z</time>
      </trkpt>
      <trkpt lat="43.96235" lon="5.14363">
        <ele>454.36</ele>
        <time>2019-02-25T11:05:26Z</time>
      </trkpt>
      <trkpt lat="43.96218" lon="5.1437">
        <ele>457.72</ele>
        <time>2019-02-25T11:05:41Z</time>
      </trkpt>
      <trkpt lat="43.96235" lon="5.14365">
        <ele>459.17</ele>
        <time>2019-02-25T11:05:56Z</time>
      </trkpt>
      <trkpt lat="43.96233" lon="5.14363">
        <ele>458.21</ele>
        <time>2019-02-25T11:06:27Z</time>
      </trkpt>
      <trkpt lat="43.96239" lon="5.14369">
        <ele>458.21</ele>
        <time>2019-02-25T11:07:16Z</time>
      </trkpt>
      <trkpt lat="43.96235" lon="5.14378">
        <ele>458.21</ele>
        <time>2019-02-25T11:07:38Z</time>
      </trkpt>
      <trkpt lat="43.96237" lon="5.1437">
        <ele>459.17</ele>
        <time>2019-02-25T11:07:53Z</time>
      </trkpt>
      <trkpt lat="43.96233" lon="5.14377">
        <ele>459.17</ele>
        <time>2019-02-25T11:08:16Z</time>
      </trkpt>
      <trkpt lat="43.96229" lon="5.14375">
        <ele>459.65</ele>
        <time>2019-02-25T11:08:20Z</time>
      </trkpt>
      <trkpt lat="43.96244" lon="5.14373">
        <ele>459.17</ele>
        <time>2019-02-25T11:08:51Z</time>
      </trkpt>
      <trkpt lat="43.96249" lon="5.14371">
        <ele>459.17</ele>
        <time>2019-02-25T11:09:11Z</time>
      </trkpt>
      <trkpt lat="43.96251" lon="5.14371">
        <ele>459.17</ele>
        <time>2019-02-25T11:09:16Z</time>
      </trkpt>
      <trkpt lat="43.96257" lon="5.14363">
        <ele>458.69</ele>
        <time>2019-02-25T11:09:42Z</time>
      </trkpt>
      <trkpt lat="43.96235" lon="5.14358">
        <ele>458.69</ele>
        <time>2019-02-25T11:10:03Z</time>
      </trkpt>
      <trkpt lat="43.96234" lon="5.14358">
        <ele>458.69</ele>
        <time>2019-02-25T11:10:04Z</time>
      </trkpt>
      <trkpt lat="43.96228" lon="5.14353">
        <ele>459.17</ele>
        <time>2019-02-25T11:10:35Z</time>
      </trkpt>
      <trkpt lat="43.96222" lon="5.14346">
        <ele>459.17</ele>
        <time>2019-02-25T11:11:07Z</time>
      </trkpt>
      <trkpt lat="43.96229" lon="5.14347">
        <ele>459.17</ele>
        <time>2019-02-25T11:11:38Z</time>
      </trkpt>
      <trkpt lat="43.9623" lon="5.14329">
        <ele>459.17</ele>
        <time>2019-02-25T11:11:59Z</time>
      </trkpt>
      <trkpt lat="43.96232" lon="5.14328">
        <ele>459.17</ele>
        <time>2019-02-25T11:12:19Z</time>
      </trkpt>
      <trkpt lat="43.96233" lon="5.14329">
        <ele>459.17</ele>
        <time>2019-02-25T11:12:20Z</time>
      </trkpt>
      <trkpt lat="43.96233" lon="5.14332">
        <ele>459.17</ele>
        <time>2019-02-25T11:12:22Z</time>
      </trkpt>
      <trkpt lat="43.96233" lon="5.14336">
        <ele>460.61</ele>
        <time>2019-02-25T11:12:28Z</time>
      </trkpt>
      <trkpt lat="43.9624" lon="5.14332">
        <ele>460.61</ele>
        <time>2019-02-25T11:13:02Z</time>
      </trkpt>
      <trkpt lat="43.96256" lon="5.14336">
        <ele>461.09</ele>
        <time>2019-02-25T11:13:31Z</time>
      </trkpt>
      <trkpt lat="43.96233" lon="5.1432">
        <ele>461.09</ele>
        <time>2019-02-25T11:13:53Z</time>
      </trkpt>
      <trkpt lat="43.96224" lon="5.14306">
        <ele>461.09</ele>
        <time>2019-02-25T11:14:13Z</time>
      </trkpt>
      <trkpt lat="43.96227" lon="5.14295">
        <ele>463.97</ele>
        <time>2019-02-25T11:14:32Z</time>
      </trkpt>
      <trkpt lat="43.96227" lon="5.14284">
        <ele>464.93</ele>
        <time>2019-02-25T11:14:51Z</time>
      </trkpt>
      <trkpt lat="43.96236" lon="5.14287">
        <ele>464.45</ele>
        <time>2019-02-25T11:15:24Z</time>
      </trkpt>
      <trkpt lat="43.96224" lon="5.14297">
        <ele>463.97</ele>
        <time>2019-02-25T11:15:43Z</time>
      </trkpt>
      <trkpt lat="43.96226" lon="5.14294">
        <ele>463.49</ele>
        <time>2019-02-25T11:15:55Z</time>
      </trkpt>
      <trkpt lat="43.96217" lon="5.14282">
        <ele>464.93</ele>
        <time>2019-02-25T11:16:09Z</time>
      </trkpt>
      <trkpt lat="43.96217" lon="5.1428">
        <ele>464.93</ele>
        <time>2019-02-25T11:16:36Z</time>
      </trkpt>
      <trkpt lat="43.9621" lon="5.14278">
        <ele>464.93</ele>
        <time>2019-02-25T11:17:01Z</time>
      </trkpt>
      <trkpt lat="43.9621" lon="5.14278">
        <ele>464.93</ele>
        <time>2019-02-25T11:17:23Z</time>
      </trkpt>
      <trkpt lat="43.96209" lon="5.14276">
        <ele>464.93</ele>
        <time>2019-02-25T11:17:47Z</time>
      </trkpt>
      <trkpt lat="43.96219" lon="5.14269">
        <ele>464.93</ele>
        <time>2019-02-25T11:18:12Z</time>
      </trkpt>
      <trkpt lat="43.96212" lon="5.14259">
        <ele>464.93</ele>
        <time>2019-02-25T11:18:32Z</time>
      </trkpt>
      <trkpt lat="43.96212" lon="5.14257">
        <ele>456.76</ele>
        <time>2019-02-25T11:18:35Z</time>
      </trkpt>
      <trkpt lat="43.96212" lon="5.14256">
        <ele>456.76</ele>
        <time>2019-02-25T11:18:36Z</time>
      </trkpt>
      <trkpt lat="43.96212" lon="5.14248">
        <ele>454.36</ele>
        <time>2019-02-25T11:18:55Z</time>
      </trkpt>
      <trkpt lat="43.9622" lon="5.14243">
        <ele>451.96</ele>
        <time>2019-02-25T11:19:16Z</time>
      </trkpt>
      <trkpt lat="43.96213" lon="5.14238">
        <ele>451.48</ele>
        <time>2019-02-25T11:19:51Z</time>
      </trkpt>
      <trkpt lat="43.96213" lon="5.14241">
        <ele>451.48</ele>
        <time>2019-02-25T11:20:21Z</time>
      </trkpt>
      <trkpt lat="43.96209" lon="5.14237">
        <ele>453.4</ele>
        <time>2019-02-25T11:20:42Z</time>
      </trkpt>
      <trkpt lat="43.96214" lon="5.14218">
        <ele>455.8</ele>
        <time>2019-02-25T11:21:01Z</time>
      </trkpt>
      <trkpt lat="43.9622" lon="5.14206">
        <ele>457.24</ele>
        <time>2019-02-25T11:21:17Z</time>
      </trkpt>
      <trkpt lat="43.96218" lon="5.14208">
        <ele>457.72</ele>
        <time>2019-02-25T11:21:46Z</time>
      </trkpt>
      <trkpt lat="43.96219" lon="5.14207">
        <ele>457.72</ele>
        <time>2019-02-25T11:22:12Z</time>
      </trkpt>
      <trkpt lat="43.96219" lon="5.14209">
        <ele>457.72</ele>
        <time>2019-02-25T11:22:32Z</time>
      </trkpt>
      <trkpt lat="43.96219" lon="5.14206">
        <ele>457.72</ele>
        <time>2019-02-25T11:22:57Z</time>
      </trkpt>
      <trkpt lat="43.96221" lon="5.14205">
        <ele>457.72</ele>
        <time>2019-02-25T11:23:26Z</time>
      </trkpt>
      <trkpt lat="43.9622" lon="5.14203">
        <ele>457.72</ele>
        <time>2019-02-25T11:23:50Z</time>
      </trkpt>
      <trkpt lat="43.96222" lon="5.14204">
        <ele>457.72</ele>
        <time>2019-02-25T11:24:07Z</time>
      </trkpt>
      <trkpt lat="43.96224" lon="5.14205">
        <ele>458.21</ele>
        <time>2019-02-25T11:24:40Z</time>
      </trkpt>
      <trkpt lat="43.96228" lon="5.14194">
        <ele>458.69</ele>
        <time>2019-02-25T11:24:58Z</time>
      </trkpt>
      <trkpt lat="43.96235" lon="5.14187">
        <ele>459.17</ele>
        <time>2019-02-25T11:25:18Z</time>
      </trkpt>
      <trkpt lat="43.96252" lon="5.14175">
        <ele>459.17</ele>
        <time>2019-02-25T11:25:40Z</time>
      </trkpt>
      <trkpt lat="43.96264" lon="5.14166">
        <ele>460.61</ele>
        <time>2019-02-25T11:25:54Z</time>
      </trkpt>
      <trkpt lat="43.96276" lon="5.14152">
        <ele>463.01</ele>
        <time>2019-02-25T11:26:11Z</time>
      </trkpt>
      <trkpt lat="43.96283" lon="5.14137">
        <ele>464.93</ele>
        <time>2019-02-25T11:26:28Z</time>
      </trkpt>
      <trkpt lat="43.96289" lon="5.14135">
        <ele>466.38</ele>
        <time>2019-02-25T11:26:40Z</time>
      </trkpt>
      <trkpt lat="43.96292" lon="5.14123">
        <ele>466.86</ele>
        <time>2019-02-25T11:27:00Z</time>
      </trkpt>
      <trkpt lat="43.96297" lon="5.14114">
        <ele>468.78</ele>
        <time>2019-02-25T11:27:12Z</time>
      </trkpt>
      <trkpt lat="43.96297" lon="5.14102">
        <ele>471.66</ele>
        <time>2019-02-25T11:27:31Z</time>
      </trkpt>
      <trkpt lat="43.96299" lon="5.14089">
        <ele>474.55</ele>
        <time>2019-02-25T11:27:48Z</time>
      </trkpt>
      <trkpt lat="43.96296" lon="5.14088">
        <ele>475.03</ele>
        <time>2019-02-25T11:28:14Z</time>
      </trkpt>
      <trkpt lat="43.96299" lon="5.14072">
        <ele>477.91</ele>
        <time>2019-02-25T11:28:35Z</time>
      </trkpt>
      <trkpt lat="43.96302" lon="5.14056">
        <ele>480.32</ele>
        <time>2019-02-25T11:28:57Z</time>
      </trkpt>
      <trkpt lat="43.96295" lon="5.14048">
        <ele>480.8</ele>
        <time>2019-02-25T11:29:22Z</time>
      </trkpt>
      <trkpt lat="43.96286" lon="5.14028">
        <ele>482.24</ele>
        <time>2019-02-25T11:29:45Z</time>
      </trkpt>
      <trkpt lat="43.96276" lon="5.14011">
        <ele>481.76</ele>
        <time>2019-02-25T11:30:11Z</time>
      </trkpt>
      <trkpt lat="43.96263" lon="5.14">
        <ele>482.24</ele>
        <time>2019-02-25T11:30:32Z</time>
      </trkpt>
      <trkpt lat="43.96251" lon="5.13985">
        <ele>482.72</ele>
        <time>2019-02-25T11:30:49Z</time>
      </trkpt>
      <trkpt lat="43.96245" lon="5.13968">
        <ele>481.76</ele>
        <time>2019-02-25T11:31:09Z</time>
      </trkpt>
      <trkpt lat="43.96235" lon="5.13951">
        <ele>479.84</ele>
        <time>2019-02-25T11:31:32Z</time>
      </trkpt>
      <trkpt lat="43.96217" lon="5.13931">
        <ele>479.35</ele>
        <time>2019-02-25T11:31:55Z</time>
      </trkpt>
      <trkpt lat="43.9621" lon="5.13918">
        <ele>478.39</ele>
        <time>2019-02-25T11:32:08Z</time>
      </trkpt>
      <trkpt lat="43.962" lon="5.13902">
        <ele>475.51</ele>
        <time>2019-02-25T11:32:31Z</time>
      </trkpt>
      <trkpt lat="43.96205" lon="5.1389">
        <ele>472.63</ele>
        <time>2019-02-25T11:32:48Z</time>
      </trkpt>
      <trkpt lat="43.96209" lon="5.13882">
        <ele>469.26</ele>
        <time>2019-02-25T11:33:05Z</time>
      </trkpt>
      <trkpt lat="43.96206" lon="5.13862">
        <ele>466.86</ele>
        <time>2019-02-25T11:33:24Z</time>
      </trkpt>
      <trkpt lat="43.962" lon="5.13841">
        <ele>464.93</ele>
        <time>2019-02-25T11:33:46Z</time>
      </trkpt>
      <trkpt lat="43.96188" lon="5.13819">
        <ele>463.01</ele>
        <time>2019-02-25T11:34:08Z</time>
      </trkpt>
      <trkpt lat="43.96174" lon="5.138">
        <ele>460.61</ele>
        <time>2019-02-25T11:34:34Z</time>
      </trkpt>
      <trkpt lat="43.96165" lon="5.13788">
        <ele>460.13</ele>
        <time>2019-02-25T11:34:49Z</time>
      </trkpt>
      <trkpt lat="43.96162" lon="5.13764">
        <ele>457.72</ele>
        <time>2019-02-25T11:35:11Z</time>
      </trkpt>
      <trkpt lat="43.96165" lon="5.13762">
        <ele>457.24</ele>
        <time>2019-02-25T11:35:39Z</time>
      </trkpt>
      <trkpt lat="43.96169" lon="5.13774">
        <ele>456.76</ele>
        <time>2019-02-25T11:35:58Z</time>
      </trkpt>
      <trkpt lat="43.96175" lon="5.13776">
        <ele>455.8</ele>
        <time>2019-02-25T11:36:22Z</time>
      </trkpt>
      <trkpt lat="43.96175" lon="5.13776">
        <ele>455.32</ele>
        <time>2019-02-25T11:37:37Z</time>
      </trkpt>
      <trkpt lat="43.96175" lon="5.13778">
        <ele>455.32</ele>
        <time>2019-02-25T11:37:54Z</time>
      </trkpt>
      <trkpt lat="43.96189" lon="5.13791">
        <ele>454.36</ele>
        <time>2019-02-25T11:38:09Z</time>
      </trkpt>
      <trkpt lat="43.9619" lon="5.1379">
        <ele>454.36</ele>
        <time>2019-02-25T11:38:10Z</time>
      </trkpt>
      <trkpt lat="43.96192" lon="5.13788">
        <ele>453.88</ele>
        <time>2019-02-25T11:38:12Z</time>
      </trkpt>
      <trkpt lat="43.9619" lon="5.13774">
        <ele>452.44</ele>
        <time>2019-02-25T11:38:21Z</time>
      </trkpt>
      <trkpt lat="43.96186" lon="5.13771">
        <ele>452.44</ele>
        <time>2019-02-25T11:38:25Z</time>
      </trkpt>
      <trkpt lat="43.96172" lon="5.1375">
        <ele>451.48</ele>
        <time>2019-02-25T11:38:43Z</time>
      </trkpt>
      <trkpt lat="43.96168" lon="5.13742">
        <ele>451</ele>
        <time>2019-02-25T11:38:49Z</time>
      </trkpt>
      <trkpt lat="43.96168" lon="5.13729">
        <ele>451</ele>
        <time>2019-02-25T11:38:58Z</time>
      </trkpt>
      <trkpt lat="43.96173" lon="5.13729">
        <ele>450.03</ele>
        <time>2019-02-25T11:39:06Z</time>
      </trkpt>
      <trkpt lat="43.96183" lon="5.1374">
        <ele>448.11</ele>
        <time>2019-02-25T11:39:18Z</time>
      </trkpt>
      <trkpt lat="43.96191" lon="5.13742">
        <ele>447.15</ele>
        <time>2019-02-25T11:39:34Z</time>
      </trkpt>
      <trkpt lat="43.96191" lon="5.13743">
        <ele>447.15</ele>
        <time>2019-02-25T11:40:04Z</time>
      </trkpt>
      <trkpt lat="43.96194" lon="5.13744">
        <ele>447.15</ele>
        <time>2019-02-25T11:40:27Z</time>
      </trkpt>
      <trkpt lat="43.96194" lon="5.13742">
        <ele>447.15</ele>
        <time>2019-02-25T11:40:52Z</time>
      </trkpt>
      <trkpt lat="43.96195" lon="5.13743">
        <ele>447.15</ele>
        <time>2019-02-25T11:41:24Z</time>
      </trkpt>
      <trkpt lat="43.96191" lon="5.13742">
        <ele>447.15</ele>
        <time>2019-02-25T11:42:02Z</time>
      </trkpt>
      <trkpt lat="43.9619" lon="5.13741">
        <ele>447.15</ele>
        <time>2019-02-25T11:42:44Z</time>
      </trkpt>
      <trkpt lat="43.9619" lon="5.13745">
        <ele>447.15</ele>
        <time>2019-02-25T11:43:32Z</time>
      </trkpt>
      <trkpt lat="43.96195" lon="5.13744">
        <ele>447.15</ele>
        <time>2019-02-25T11:44:55Z</time>
      </trkpt>
      <trkpt lat="43.96194" lon="5.13744">
        <ele>447.15</ele>
        <time>2019-02-25T11:46:20Z</time>
      </trkpt>
      <trkpt lat="43.96193" lon="5.13746">
        <ele>447.15</ele>
        <time>2019-02-25T11:47:59Z</time>
      </trkpt>
      <trkpt lat="43.96194" lon="5.13741">
        <ele>447.15</ele>
        <time>2019-02-25T11:50:31Z</time>
      </trkpt>
      <trkpt lat="43.96197" lon="5.13743">
        <ele>447.15</ele>
        <time>2019-02-25T11:52:18Z</time>
      </trkpt>
      <trkpt lat="43.96193" lon="5.1374">
        <ele>447.15</ele>
        <time>2019-02-25T11:52:55Z</time>
      </trkpt>
      <trkpt lat="43.96194" lon="5.13742">
        <ele>447.15</ele>
        <time>2019-02-25T11:54:53Z</time>
      </trkpt>
      <trkpt lat="43.96192" lon="5.13744">
        <ele>447.15</ele>
        <time>2019-02-25T11:56:13Z</time>
      </trkpt>
      <trkpt lat="43.96194" lon="5.13743">
        <ele>447.15</ele>
        <time>2019-02-25T11:57:22Z</time>
      </trkpt>
      <trkpt lat="43.96196" lon="5.13745">
        <ele>447.15</ele>
        <time>2019-02-25T11:59:05Z</time>
      </trkpt>
      <trkpt lat="43.96198" lon="5.13744">
        <ele>447.15</ele>
        <time>2019-02-25T12:00:33Z</time>
      </trkpt>
      <trkpt lat="43.96196" lon="5.13744">
        <ele>447.15</ele>
        <time>2019-02-25T12:01:54Z</time>
      </trkpt>
      <trkpt lat="43.96196" lon="5.13744">
        <ele>447.15</ele>
        <time>2019-02-25T12:03:59Z</time>
      </trkpt>
      <trkpt lat="43.96194" lon="5.13747">
        <ele>447.15</ele>
        <time>2019-02-25T12:06:57Z</time>
      </trkpt>
      <trkpt lat="43.96196" lon="5.13749">
        <ele>447.15</ele>
        <time>2019-02-25T12:08:40Z</time>
      </trkpt>
      <trkpt lat="43.96197" lon="5.13749">
        <ele>447.15</ele>
        <time>2019-02-25T12:11:59Z</time>
      </trkpt>
      <trkpt lat="43.96197" lon="5.13744">
        <ele>447.15</ele>
        <time>2019-02-25T12:14:36Z</time>
      </trkpt>
      <trkpt lat="43.96194" lon="5.13745">
        <ele>447.15</ele>
        <time>2019-02-25T12:16:02Z</time>
      </trkpt>
      <trkpt lat="43.96194" lon="5.13744">
        <ele>447.15</ele>
        <time>2019-02-25T12:18:31Z</time>
      </trkpt>
      <trkpt lat="43.96193" lon="5.13742">
        <ele>447.15</ele>
        <time>2019-02-25T12:20:17Z</time>
      </trkpt>
      <trkpt lat="43.96192" lon="5.13743">
        <ele>447.15</ele>
        <time>2019-02-25T12:21:40Z</time>
      </trkpt>
      <trkpt lat="43.96191" lon="5.1374">
        <ele>447.15</ele>
        <time>2019-02-25T12:22:15Z</time>
      </trkpt>
      <trkpt lat="43.9619" lon="5.13739">
        <ele>447.15</ele>
        <time>2019-02-25T12:22:42Z</time>
      </trkpt>
      <trkpt lat="43.9619" lon="5.13742">
        <ele>447.15</ele>
        <time>2019-02-25T12:23:03Z</time>
      </trkpt>
      <trkpt lat="43.96183" lon="5.13741">
        <ele>447.15</ele>
        <time>2019-02-25T12:23:36Z</time>
      </trkpt>
      <trkpt lat="43.96176" lon="5.1374">
        <ele>447.15</ele>
        <time>2019-02-25T12:24:02Z</time>
      </trkpt>
      <trkpt lat="43.96179" lon="5.13742">
        <ele>447.15</ele>
        <time>2019-02-25T12:24:16Z</time>
      </trkpt>
      <trkpt lat="43.96181" lon="5.13739">
        <ele>447.15</ele>
        <time>2019-02-25T12:24:40Z</time>
      </trkpt>
      <trkpt lat="43.96183" lon="5.13741">
        <ele>447.15</ele>
        <time>2019-02-25T12:25:05Z</time>
      </trkpt>
      <trkpt lat="43.96175" lon="5.13732">
        <ele>447.15</ele>
        <time>2019-02-25T12:25:37Z</time>
      </trkpt>
      <trkpt lat="43.96163" lon="5.13719">
        <ele>447.15</ele>
        <time>2019-02-25T12:26:02Z</time>
      </trkpt>
      <trkpt lat="43.96154" lon="5.13711">
        <ele>452.92</ele>
        <time>2019-02-25T12:26:17Z</time>
      </trkpt>
      <trkpt lat="43.96154" lon="5.13711">
        <ele>452.92</ele>
        <time>2019-02-25T12:26:18Z</time>
      </trkpt>
      <trkpt lat="43.96145" lon="5.13698">
        <ele>454.36</ele>
        <time>2019-02-25T12:26:41Z</time>
      </trkpt>
      <trkpt lat="43.96133" lon="5.13688">
        <ele>455.8</ele>
        <time>2019-02-25T12:27:04Z</time>
      </trkpt>
      <trkpt lat="43.96117" lon="5.13676">
        <ele>458.69</ele>
        <time>2019-02-25T12:27:30Z</time>
      </trkpt>
      <trkpt lat="43.96107" lon="5.13663">
        <ele>460.61</ele>
        <time>2019-02-25T12:27:53Z</time>
      </trkpt>
      <trkpt lat="43.96102" lon="5.13662">
        <ele>461.57</ele>
        <time>2019-02-25T12:28:15Z</time>
      </trkpt>
      <trkpt lat="43.96097" lon="5.13658">
        <ele>462.53</ele>
        <time>2019-02-25T12:28:32Z</time>
      </trkpt>
      <trkpt lat="43.96084" lon="5.13646">
        <ele>463.49</ele>
        <time>2019-02-25T12:28:51Z</time>
      </trkpt>
      <trkpt lat="43.96067" lon="5.13638">
        <ele>465.42</ele>
        <time>2019-02-25T12:29:13Z</time>
      </trkpt>
      <trkpt lat="43.96049" lon="5.13631">
        <ele>467.82</ele>
        <time>2019-02-25T12:29:37Z</time>
      </trkpt>
      <trkpt lat="43.96028" lon="5.13618">
        <ele>468.78</ele>
        <time>2019-02-25T12:29:59Z</time>
      </trkpt>
      <trkpt lat="43.96009" lon="5.13607">
        <ele>470.22</ele>
        <time>2019-02-25T12:30:21Z</time>
      </trkpt>
      <trkpt lat="43.95995" lon="5.13593">
        <ele>471.66</ele>
        <time>2019-02-25T12:30:43Z</time>
      </trkpt>
      <trkpt lat="43.95983" lon="5.13585">
        <ele>472.63</ele>
        <time>2019-02-25T12:30:57Z</time>
      </trkpt>
      <trkpt lat="43.95972" lon="5.13574">
        <ele>472.63</ele>
        <time>2019-02-25T12:31:08Z</time>
      </trkpt>
      <trkpt lat="43.95962" lon="5.1356">
        <ele>473.59</ele>
        <time>2019-02-25T12:31:26Z</time>
      </trkpt>
      <trkpt lat="43.95957" lon="5.13542">
        <ele>475.51</ele>
        <time>2019-02-25T12:31:47Z</time>
      </trkpt>
      <trkpt lat="43.95944" lon="5.13522">
        <ele>477.91</ele>
        <time>2019-02-25T12:32:10Z</time>
      </trkpt>
      <trkpt lat="43.9593" lon="5.13503">
        <ele>479.84</ele>
        <time>2019-02-25T12:32:34Z</time>
      </trkpt>
      <trkpt lat="43.95917" lon="5.13486">
        <ele>481.76</ele>
        <time>2019-02-25T12:32:55Z</time>
      </trkpt>
      <trkpt lat="43.95906" lon="5.13475">
        <ele>483.2</ele>
        <time>2019-02-25T12:33:17Z</time>
      </trkpt>
      <trkpt lat="43.95895" lon="5.13462">
        <ele>485.12</ele>
        <time>2019-02-25T12:33:39Z</time>
      </trkpt>
      <trkpt lat="43.95881" lon="5.13449">
        <ele>486.56</ele>
        <time>2019-02-25T12:33:59Z</time>
      </trkpt>
      <trkpt lat="43.95866" lon="5.1344">
        <ele>488.49</ele>
        <time>2019-02-25T12:34:19Z</time>
      </trkpt>
      <trkpt lat="43.95865" lon="5.13443">
        <ele>488.97</ele>
        <time>2019-02-25T12:34:40Z</time>
      </trkpt>
      <trkpt lat="43.95867" lon="5.13444">
        <ele>488.97</ele>
        <time>2019-02-25T12:35:18Z</time>
      </trkpt>
      <trkpt lat="43.95866" lon="5.13428">
        <ele>488.97</ele>
        <time>2019-02-25T12:35:49Z</time>
      </trkpt>
      <trkpt lat="43.95865" lon="5.13426">
        <ele>488.97</ele>
        <time>2019-02-25T12:35:51Z</time>
      </trkpt>
      <trkpt lat="43.95862" lon="5.13403">
        <ele>491.37</ele>
        <time>2019-02-25T12:36:10Z</time>
      </trkpt>
      <trkpt lat="43.95854" lon="5.13377">
        <ele>493.29</ele>
        <time>2019-02-25T12:36:33Z</time>
      </trkpt>
      <trkpt lat="43.95849" lon="5.13353">
        <ele>494.74</ele>
        <time>2019-02-25T12:36:58Z</time>
      </trkpt>
      <trkpt lat="43.95843" lon="5.13333">
        <ele>496.66</ele>
        <time>2019-02-25T12:37:19Z</time>
      </trkpt>
      <trkpt lat="43.95832" lon="5.13311">
        <ele>498.58</ele>
        <time>2019-02-25T12:37:41Z</time>
      </trkpt>
      <trkpt lat="43.95823" lon="5.13286">
        <ele>500.98</ele>
        <time>2019-02-25T12:38:04Z</time>
      </trkpt>
      <trkpt lat="43.95818" lon="5.13269">
        <ele>501.95</ele>
        <time>2019-02-25T12:38:22Z</time>
      </trkpt>
      <trkpt lat="43.95815" lon="5.13264">
        <ele>502.43</ele>
        <time>2019-02-25T12:38:27Z</time>
      </trkpt>
      <trkpt lat="43.95814" lon="5.13261">
        <ele>502.43</ele>
        <time>2019-02-25T12:38:30Z</time>
      </trkpt>
      <trkpt lat="43.95804" lon="5.13243">
        <ele>503.87</ele>
        <time>2019-02-25T12:38:48Z</time>
      </trkpt>
      <trkpt lat="43.95803" lon="5.13223">
        <ele>504.83</ele>
        <time>2019-02-25T12:39:04Z</time>
      </trkpt>
      <trkpt lat="43.95804" lon="5.1322">
        <ele>505.31</ele>
        <time>2019-02-25T12:39:07Z</time>
      </trkpt>
      <trkpt lat="43.95806" lon="5.13219">
        <ele>505.31</ele>
        <time>2019-02-25T12:39:09Z</time>
      </trkpt>
      <trkpt lat="43.95828" lon="5.13224">
        <ele>505.79</ele>
        <time>2019-02-25T12:39:30Z</time>
      </trkpt>
      <trkpt lat="43.95844" lon="5.13227">
        <ele>505.31</ele>
        <time>2019-02-25T12:39:46Z</time>
      </trkpt>
      <trkpt lat="43.95865" lon="5.1323">
        <ele>504.83</ele>
        <time>2019-02-25T12:40:08Z</time>
      </trkpt>
      <trkpt lat="43.9588" lon="5.13231">
        <ele>503.87</ele>
        <time>2019-02-25T12:40:24Z</time>
      </trkpt>
      <trkpt lat="43.95896" lon="5.1323">
        <ele>503.39</ele>
        <time>2019-02-25T12:40:41Z</time>
      </trkpt>
      <trkpt lat="43.95913" lon="5.13233">
        <ele>501.95</ele>
        <time>2019-02-25T12:41:02Z</time>
      </trkpt>
      <trkpt lat="43.9593" lon="5.13228">
        <ele>500.98</ele>
        <time>2019-02-25T12:41:23Z</time>
      </trkpt>
      <trkpt lat="43.95941" lon="5.13221">
        <ele>499.54</ele>
        <time>2019-02-25T12:41:40Z</time>
      </trkpt>
      <trkpt lat="43.95949" lon="5.13204">
        <ele>497.62</ele>
        <time>2019-02-25T12:42:01Z</time>
      </trkpt>
      <trkpt lat="43.95959" lon="5.13188">
        <ele>496.66</ele>
        <time>2019-02-25T12:42:26Z</time>
      </trkpt>
      <trkpt lat="43.9596" lon="5.13187">
        <ele>496.18</ele>
        <time>2019-02-25T12:42:55Z</time>
      </trkpt>
      <trkpt lat="43.95963" lon="5.13195">
        <ele>496.18</ele>
        <time>2019-02-25T12:43:03Z</time>
      </trkpt>
      <trkpt lat="43.95981" lon="5.13193">
        <ele>494.74</ele>
        <time>2019-02-25T12:43:21Z</time>
      </trkpt>
      <trkpt lat="43.95992" lon="5.132">
        <ele>493.77</ele>
        <time>2019-02-25T12:43:36Z</time>
      </trkpt>
      <trkpt lat="43.96007" lon="5.13207">
        <ele>493.29</ele>
        <time>2019-02-25T12:43:55Z</time>
      </trkpt>
      <trkpt lat="43.96017" lon="5.132">
        <ele>492.33</ele>
        <time>2019-02-25T12:44:12Z</time>
      </trkpt>
      <trkpt lat="43.96031" lon="5.13197">
        <ele>490.89</ele>
        <time>2019-02-25T12:44:29Z</time>
      </trkpt>
      <trkpt lat="43.96045" lon="5.13193">
        <ele>488.49</ele>
        <time>2019-02-25T12:44:49Z</time>
      </trkpt>
      <trkpt lat="43.96051" lon="5.13189">
        <ele>486.56</ele>
        <time>2019-02-25T12:45:12Z</time>
      </trkpt>
      <trkpt lat="43.9605" lon="5.13193">
        <ele>487.05</ele>
        <time>2019-02-25T12:45:43Z</time>
      </trkpt>
      <trkpt lat="43.96058" lon="5.13186">
        <ele>486.56</ele>
        <time>2019-02-25T12:46:09Z</time>
      </trkpt>
      <trkpt lat="43.96069" lon="5.1318">
        <ele>486.56</ele>
        <time>2019-02-25T12:46:27Z</time>
      </trkpt>
      <trkpt lat="43.96088" lon="5.13173">
        <ele>486.56</ele>
        <time>2019-02-25T12:46:50Z</time>
      </trkpt>
      <trkpt lat="43.96101" lon="5.13167">
        <ele>479.84</ele>
        <time>2019-02-25T12:47:06Z</time>
      </trkpt>
      <trkpt lat="43.96101" lon="5.13167">
        <ele>479.84</ele>
        <time>2019-02-25T12:47:07Z</time>
      </trkpt>
      <trkpt lat="43.96118" lon="5.13167">
        <ele>478.39</ele>
        <time>2019-02-25T12:47:27Z</time>
      </trkpt>
      <trkpt lat="43.96134" lon="5.13166">
        <ele>475.99</ele>
        <time>2019-02-25T12:47:47Z</time>
      </trkpt>
      <trkpt lat="43.96146" lon="5.13159">
        <ele>474.07</ele>
        <time>2019-02-25T12:48:07Z</time>
      </trkpt>
      <trkpt lat="43.96162" lon="5.13159">
        <ele>471.18</ele>
        <time>2019-02-25T12:48:28Z</time>
      </trkpt>
      <trkpt lat="43.96177" lon="5.13158">
        <ele>469.26</ele>
        <time>2019-02-25T12:48:47Z</time>
      </trkpt>
      <trkpt lat="43.96192" lon="5.13156">
        <ele>467.82</ele>
        <time>2019-02-25T12:49:07Z</time>
      </trkpt>
      <trkpt lat="43.96202" lon="5.13151">
        <ele>465.9</ele>
        <time>2019-02-25T12:49:26Z</time>
      </trkpt>
      <trkpt lat="43.96215" lon="5.13148">
        <ele>463.97</ele>
        <time>2019-02-25T12:49:45Z</time>
      </trkpt>
      <trkpt lat="43.96234" lon="5.13146">
        <ele>462.05</ele>
        <time>2019-02-25T12:50:07Z</time>
      </trkpt>
      <trkpt lat="43.96247" lon="5.13135">
        <ele>459.65</ele>
        <time>2019-02-25T12:50:29Z</time>
      </trkpt>
      <trkpt lat="43.96262" lon="5.13128">
        <ele>457.72</ele>
        <time>2019-02-25T12:50:52Z</time>
      </trkpt>
      <trkpt lat="43.96279" lon="5.13122">
        <ele>456.28</ele>
        <time>2019-02-25T12:51:13Z</time>
      </trkpt>
      <trkpt lat="43.96295" lon="5.13117">
        <ele>453.88</ele>
        <time>2019-02-25T12:51:34Z</time>
      </trkpt>
      <trkpt lat="43.96314" lon="5.13115">
        <ele>451.48</ele>
        <time>2019-02-25T12:51:58Z</time>
      </trkpt>
      <trkpt lat="43.96329" lon="5.13111">
        <ele>449.07</ele>
        <time>2019-02-25T12:52:19Z</time>
      </trkpt>
      <trkpt lat="43.96341" lon="5.13105">
        <ele>447.63</ele>
        <time>2019-02-25T12:52:37Z</time>
      </trkpt>
      <trkpt lat="43.96356" lon="5.13097">
        <ele>445.23</ele>
        <time>2019-02-25T12:52:56Z</time>
      </trkpt>
      <trkpt lat="43.96375" lon="5.13092">
        <ele>442.34</ele>
        <time>2019-02-25T12:53:16Z</time>
      </trkpt>
      <trkpt lat="43.96391" lon="5.13091">
        <ele>440.42</ele>
        <time>2019-02-25T12:53:36Z</time>
      </trkpt>
      <trkpt lat="43.96412" lon="5.13087">
        <ele>438.02</ele>
        <time>2019-02-25T12:53:55Z</time>
      </trkpt>
      <trkpt lat="43.96431" lon="5.13084">
        <ele>436.1</ele>
        <time>2019-02-25T12:54:14Z</time>
      </trkpt>
      <trkpt lat="43.96434" lon="5.13083">
        <ele>436.1</ele>
        <time>2019-02-25T12:54:18Z</time>
      </trkpt>
      <trkpt lat="43.96442" lon="5.13083">
        <ele>435.61</ele>
        <time>2019-02-25T12:54:25Z</time>
      </trkpt>
      <trkpt lat="43.96452" lon="5.13083">
        <ele>434.65</ele>
        <time>2019-02-25T12:54:35Z</time>
      </trkpt>
      <trkpt lat="43.96467" lon="5.13072">
        <ele>433.21</ele>
        <time>2019-02-25T12:54:54Z</time>
      </trkpt>
      <trkpt lat="43.96476" lon="5.13065">
        <ele>431.29</ele>
        <time>2019-02-25T12:55:13Z</time>
      </trkpt>
      <trkpt lat="43.96478" lon="5.13065">
        <ele>431.29</ele>
        <time>2019-02-25T12:55:33Z</time>
      </trkpt>
      <trkpt lat="43.96493" lon="5.13062">
        <ele>429.85</ele>
        <time>2019-02-25T12:55:48Z</time>
      </trkpt>
      <trkpt lat="43.965" lon="5.1305">
        <ele>428.4</ele>
        <time>2019-02-25T12:56:07Z</time>
      </trkpt>
      <trkpt lat="43.96505" lon="5.13035">
        <ele>427.92</ele>
        <time>2019-02-25T12:56:24Z</time>
      </trkpt>
      <trkpt lat="43.96514" lon="5.13036">
        <ele>427.44</ele>
        <time>2019-02-25T12:56:37Z</time>
      </trkpt>
      <trkpt lat="43.96524" lon="5.13035">
        <ele>426.96</ele>
        <time>2019-02-25T12:56:52Z</time>
      </trkpt>
      <trkpt lat="43.96528" lon="5.13038">
        <ele>426.48</ele>
        <time>2019-02-25T12:56:59Z</time>
      </trkpt>
      <trkpt lat="43.96543" lon="5.13041">
        <ele>425.04</ele>
        <time>2019-02-25T12:57:18Z</time>
      </trkpt>
      <trkpt lat="43.96555" lon="5.13042">
        <ele>423.6</ele>
        <time>2019-02-25T12:57:35Z</time>
      </trkpt>
      <trkpt lat="43.96562" lon="5.13046">
        <ele>423.12</ele>
        <time>2019-02-25T12:57:55Z</time>
      </trkpt>
      <trkpt lat="43.96566" lon="5.13037">
        <ele>422.16</ele>
        <time>2019-02-25T12:58:12Z</time>
      </trkpt>
      <trkpt lat="43.96565" lon="5.13036">
        <ele>422.16</ele>
        <time>2019-02-25T12:58:45Z</time>
      </trkpt>
      <trkpt lat="43.96565" lon="5.13034">
        <ele>421.68</ele>
        <time>2019-02-25T12:59:15Z</time>
      </trkpt>
      <trkpt lat="43.96564" lon="5.13034">
        <ele>421.68</ele>
        <time>2019-02-25T12:59:44Z</time>
      </trkpt>
      <trkpt lat="43.96565" lon="5.1304">
        <ele>421.68</ele>
        <time>2019-02-25T13:00:10Z</time>
      </trkpt>
      <trkpt lat="43.96566" lon="5.13039">
        <ele>421.68</ele>
        <time>2019-02-25T13:00:38Z</time>
      </trkpt>
      <trkpt lat="43.96566" lon="5.13038">
        <ele>421.68</ele>
        <time>2019-02-25T13:01:08Z</time>
      </trkpt>
      <trkpt lat="43.96565" lon="5.13037">
        <ele>421.68</ele>
        <time>2019-02-25T13:01:39Z</time>
      </trkpt>
      <trkpt lat="43.96567" lon="5.13035">
        <ele>421.68</ele>
        <time>2019-02-25T13:02:02Z</time>
      </trkpt>
      <trkpt lat="43.9657" lon="5.13026">
        <ele>421.68</ele>
        <time>2019-02-25T13:02:30Z</time>
      </trkpt>
      <trkpt lat="43.96563" lon="5.13002">
        <ele>421.68</ele>
        <time>2019-02-25T13:02:51Z</time>
      </trkpt>
      <trkpt lat="43.96549" lon="5.12987">
        <ele>421.68</ele>
        <time>2019-02-25T13:03:13Z</time>
      </trkpt>
      <trkpt lat="43.96549" lon="5.12985">
        <ele>415.43</ele>
        <time>2019-02-25T13:03:16Z</time>
      </trkpt>
      <trkpt lat="43.96548" lon="5.12983">
        <ele>415.43</ele>
        <time>2019-02-25T13:03:17Z</time>
      </trkpt>
      <trkpt lat="43.96561" lon="5.12971">
        <ele>413.5</ele>
        <time>2019-02-25T13:03:39Z</time>
      </trkpt>
      <trkpt lat="43.96581" lon="5.12962">
        <ele>411.58</ele>
        <time>2019-02-25T13:04:02Z</time>
      </trkpt>
      <trkpt lat="43.96582" lon="5.12951">
        <ele>409.66</ele>
        <time>2019-02-25T13:04:19Z</time>
      </trkpt>
      <trkpt lat="43.96567" lon="5.12945">
        <ele>407.26</ele>
        <time>2019-02-25T13:04:41Z</time>
      </trkpt>
      <trkpt lat="43.96561" lon="5.12929">
        <ele>405.81</ele>
        <time>2019-02-25T13:05:02Z</time>
      </trkpt>
      <trkpt lat="43.96565" lon="5.12903">
        <ele>403.41</ele>
        <time>2019-02-25T13:05:24Z</time>
      </trkpt>
      <trkpt lat="43.96583" lon="5.1288">
        <ele>401.97</ele>
        <time>2019-02-25T13:05:47Z</time>
      </trkpt>
      <trkpt lat="43.96599" lon="5.12871">
        <ele>401.49</ele>
        <time>2019-02-25T13:06:08Z</time>
      </trkpt>
      <trkpt lat="43.96614" lon="5.12857">
        <ele>401.01</ele>
        <time>2019-02-25T13:06:29Z</time>
      </trkpt>
      <trkpt lat="43.96636" lon="5.12841">
        <ele>400.53</ele>
        <time>2019-02-25T13:06:51Z</time>
      </trkpt>
      <trkpt lat="43.96638" lon="5.12839">
        <ele>400.53</ele>
        <time>2019-02-25T13:06:53Z</time>
      </trkpt>
      <trkpt lat="43.96651" lon="5.1283">
        <ele>399.57</ele>
        <time>2019-02-25T13:07:09Z</time>
      </trkpt>
      <trkpt lat="43.96665" lon="5.12821">
        <ele>398.12</ele>
        <time>2019-02-25T13:07:28Z</time>
      </trkpt>
      <trkpt lat="43.96681" lon="5.12807">
        <ele>396.2</ele>
        <time>2019-02-25T13:07:50Z</time>
      </trkpt>
      <trkpt lat="43.9669" lon="5.12798">
        <ele>395.24</ele>
        <time>2019-02-25T13:08:07Z</time>
      </trkpt>
      <trkpt lat="43.96703" lon="5.1279">
        <ele>392.84</ele>
        <time>2019-02-25T13:08:29Z</time>
      </trkpt>
      <trkpt lat="43.96723" lon="5.12776">
        <ele>391.39</ele>
        <time>2019-02-25T13:08:53Z</time>
      </trkpt>
      <trkpt lat="43.9674" lon="5.12766">
        <ele>389.47</ele>
        <time>2019-02-25T13:09:15Z</time>
      </trkpt>
      <trkpt lat="43.9675" lon="5.12751">
        <ele>388.03</ele>
        <time>2019-02-25T13:09:34Z</time>
      </trkpt>
      <trkpt lat="43.96764" lon="5.12734">
        <ele>385.63</ele>
        <time>2019-02-25T13:09:54Z</time>
      </trkpt>
      <trkpt lat="43.96776" lon="5.12721">
        <ele>384.18</ele>
        <time>2019-02-25T13:10:14Z</time>
      </trkpt>
      <trkpt lat="43.96787" lon="5.1271">
        <ele>382.74</ele>
        <time>2019-02-25T13:10:33Z</time>
      </trkpt>
      <trkpt lat="43.96798" lon="5.12702">
        <ele>380.82</ele>
        <time>2019-02-25T13:10:55Z</time>
      </trkpt>
      <trkpt lat="43.96814" lon="5.12683">
        <ele>378.9</ele>
        <time>2019-02-25T13:11:17Z</time>
      </trkpt>
      <trkpt lat="43.96815" lon="5.12675">
        <ele>377.94</ele>
        <time>2019-02-25T13:11:34Z</time>
      </trkpt>
      <trkpt lat="43.96815" lon="5.12674">
        <ele>377.94</ele>
        <time>2019-02-25T13:11:35Z</time>
      </trkpt>
      <trkpt lat="43.96818" lon="5.12662">
        <ele>377.94</ele>
        <time>2019-02-25T13:11:43Z</time>
      </trkpt>
      <trkpt lat="43.96823" lon="5.12649">
        <ele>374.57</ele>
        <time>2019-02-25T13:11:58Z</time>
      </trkpt>
      <trkpt lat="43.9682" lon="5.12653">
        <ele>374.57</ele>
        <time>2019-02-25T13:12:55Z</time>
      </trkpt>
      <trkpt lat="43.96824" lon="5.12654">
        <ele>376.01</ele>
        <time>2019-02-25T13:13:32Z</time>
      </trkpt>
      <trkpt lat="43.96824" lon="5.12653">
        <ele>375.53</ele>
        <time>2019-02-25T13:14:03Z</time>
      </trkpt>
      <trkpt lat="43.96832" lon="5.12636">
        <ele>373.61</ele>
        <time>2019-02-25T13:14:20Z</time>
      </trkpt>
      <trkpt lat="43.96836" lon="5.12617">
        <ele>371.69</ele>
        <time>2019-02-25T13:14:37Z</time>
      </trkpt>
      <trkpt lat="43.96837" lon="5.12595">
        <ele>369.76</ele>
        <time>2019-02-25T13:14:57Z</time>
      </trkpt>
      <trkpt lat="43.96838" lon="5.12577">
        <ele>367.84</ele>
        <time>2019-02-25T13:15:15Z</time>
      </trkpt>
      <trkpt lat="43.96838" lon="5.12551">
        <ele>366.88</ele>
        <time>2019-02-25T13:15:36Z</time>
      </trkpt>
      <trkpt lat="43.96835" lon="5.1252">
        <ele>364.96</ele>
        <time>2019-02-25T13:16:01Z</time>
      </trkpt>
      <trkpt lat="43.96834" lon="5.1249">
        <ele>363.52</ele>
        <time>2019-02-25T13:16:24Z</time>
      </trkpt>
      <trkpt lat="43.9684" lon="5.12471">
        <ele>363.04</ele>
        <time>2019-02-25T13:16:39Z</time>
      </trkpt>
      <trkpt lat="43.96846" lon="5.1245">
        <ele>363.04</ele>
        <time>2019-02-25T13:16:56Z</time>
      </trkpt>
      <trkpt lat="43.96853" lon="5.12425">
        <ele>363.52</ele>
        <time>2019-02-25T13:17:20Z</time>
      </trkpt>
      <trkpt lat="43.96853" lon="5.12424">
        <ele>363.52</ele>
        <time>2019-02-25T13:17:46Z</time>
      </trkpt>
      <trkpt lat="43.96852" lon="5.12426">
        <ele>363.52</ele>
        <time>2019-02-25T13:18:12Z</time>
      </trkpt>
      <trkpt lat="43.96852" lon="5.12436">
        <ele>363.52</ele>
        <time>2019-02-25T13:18:47Z</time>
      </trkpt>
      <trkpt lat="43.96853" lon="5.12432">
        <ele>364</ele>
        <time>2019-02-25T13:19:18Z</time>
      </trkpt>
      <trkpt lat="43.96855" lon="5.12427">
        <ele>364</ele>
        <time>2019-02-25T13:19:44Z</time>
      </trkpt>
      <trkpt lat="43.96852" lon="5.1242">
        <ele>364</ele>
        <time>2019-02-25T13:20:05Z</time>
      </trkpt>
      <trkpt lat="43.96857" lon="5.12412">
        <ele>364</ele>
        <time>2019-02-25T13:20:28Z</time>
      </trkpt>
      <trkpt lat="43.96871" lon="5.12395">
        <ele>364</ele>
        <time>2019-02-25T13:20:50Z</time>
      </trkpt>
      <trkpt lat="43.96884" lon="5.12385">
        <ele>364</ele>
        <time>2019-02-25T13:21:11Z</time>
      </trkpt>
      <trkpt lat="43.96892" lon="5.12373">
        <ele>359.19</ele>
        <time>2019-02-25T13:21:25Z</time>
      </trkpt>
      <trkpt lat="43.96893" lon="5.12373">
        <ele>359.19</ele>
        <time>2019-02-25T13:21:26Z</time>
      </trkpt>
      <trkpt lat="43.96905" lon="5.12353">
        <ele>356.79</ele>
        <time>2019-02-25T13:21:49Z</time>
      </trkpt>
      <trkpt lat="43.96916" lon="5.12334">
        <ele>354.86</ele>
        <time>2019-02-25T13:22:13Z</time>
      </trkpt>
      <trkpt lat="43.96923" lon="5.12311">
        <ele>354.38</ele>
        <time>2019-02-25T13:22:36Z</time>
      </trkpt>
      <trkpt lat="43.96934" lon="5.12287">
        <ele>353.9</ele>
        <time>2019-02-25T13:22:56Z</time>
      </trkpt>
      <trkpt lat="43.96941" lon="5.12258">
        <ele>353.42</ele>
        <time>2019-02-25T13:23:18Z</time>
      </trkpt>
      <trkpt lat="43.96939" lon="5.12238">
        <ele>353.9</ele>
        <time>2019-02-25T13:23:39Z</time>
      </trkpt>
      <trkpt lat="43.96942" lon="5.12234">
        <ele>353.9</ele>
        <time>2019-02-25T13:23:54Z</time>
      </trkpt>
      <trkpt lat="43.96944" lon="5.12222">
        <ele>353.9</ele>
        <time>2019-02-25T13:24:10Z</time>
      </trkpt>
      <trkpt lat="43.96943" lon="5.12211">
        <ele>353.9</ele>
        <time>2019-02-25T13:24:22Z</time>
      </trkpt>
      <trkpt lat="43.96945" lon="5.12194">
        <ele>352.46</ele>
        <time>2019-02-25T13:24:37Z</time>
      </trkpt>
      <trkpt lat="43.96946" lon="5.12188">
        <ele>351.02</ele>
        <time>2019-02-25T13:24:40Z</time>
      </trkpt>
      <trkpt lat="43.9695" lon="5.12168">
        <ele>350.54</ele>
        <time>2019-02-25T13:24:54Z</time>
      </trkpt>
      <trkpt lat="43.96964" lon="5.12151">
        <ele>349.1</ele>
        <time>2019-02-25T13:25:11Z</time>
      </trkpt>
      <trkpt lat="43.96972" lon="5.12127">
        <ele>349.1</ele>
        <time>2019-02-25T13:25:31Z</time>
      </trkpt>
      <trkpt lat="43.96983" lon="5.12099">
        <ele>347.17</ele>
        <time>2019-02-25T13:25:55Z</time>
      </trkpt>
      <trkpt lat="43.96997" lon="5.12079">
        <ele>345.73</ele>
        <time>2019-02-25T13:26:17Z</time>
      </trkpt>
      <trkpt lat="43.97012" lon="5.12056">
        <ele>345.25</ele>
        <time>2019-02-25T13:26:40Z</time>
      </trkpt>
      <trkpt lat="43.97023" lon="5.12032">
        <ele>345.25</ele>
        <time>2019-02-25T13:27:02Z</time>
      </trkpt>
      <trkpt lat="43.97032" lon="5.12005">
        <ele>342.85</ele>
        <time>2019-02-25T13:27:23Z</time>
      </trkpt>
      <trkpt lat="43.97038" lon="5.11989">
        <ele>339.48</ele>
        <time>2019-02-25T13:27:41Z</time>
      </trkpt>
      <trkpt lat="43.97049" lon="5.1197">
        <ele>336.6</ele>
        <time>2019-02-25T13:28:02Z</time>
      </trkpt>
      <trkpt lat="43.97057" lon="5.1196">
        <ele>333.71</ele>
        <time>2019-02-25T13:28:22Z</time>
      </trkpt>
      <trkpt lat="43.97061" lon="5.11929">
        <ele>333.23</ele>
        <time>2019-02-25T13:28:43Z</time>
      </trkpt>
      <trkpt lat="43.97061" lon="5.11907">
        <ele>331.31</ele>
        <time>2019-02-25T13:29:06Z</time>
      </trkpt>
      <trkpt lat="43.97063" lon="5.11876">
        <ele>329.39</ele>
        <time>2019-02-25T13:29:25Z</time>
      </trkpt>
      <trkpt lat="43.97061" lon="5.11852">
        <ele>329.39</ele>
        <time>2019-02-25T13:29:44Z</time>
      </trkpt>
      <trkpt lat="43.97074" lon="5.11833">
        <ele>328.91</ele>
        <time>2019-02-25T13:30:03Z</time>
      </trkpt>
      <trkpt lat="43.97088" lon="5.11835">
        <ele>328.43</ele>
        <time>2019-02-25T13:30:20Z</time>
      </trkpt>
      <trkpt lat="43.97108" lon="5.11836">
        <ele>327.47</ele>
        <time>2019-02-25T13:30:42Z</time>
      </trkpt>
      <trkpt lat="43.97123" lon="5.11834">
        <ele>327.47</ele>
        <time>2019-02-25T13:31:04Z</time>
      </trkpt>
      <trkpt lat="43.97135" lon="5.11804">
        <ele>328.43</ele>
        <time>2019-02-25T13:31:28Z</time>
      </trkpt>
      <trkpt lat="43.97146" lon="5.11781">
        <ele>328.43</ele>
        <time>2019-02-25T13:31:49Z</time>
      </trkpt>
      <trkpt lat="43.97157" lon="5.11771">
        <ele>327.95</ele>
        <time>2019-02-25T13:32:08Z</time>
      </trkpt>
      <trkpt lat="43.97162" lon="5.11768">
        <ele>326.99</ele>
        <time>2019-02-25T13:32:31Z</time>
      </trkpt>
      <trkpt lat="43.97174" lon="5.11766">
        <ele>326.5</ele>
        <time>2019-02-25T13:32:49Z</time>
      </trkpt>
      <trkpt lat="43.97186" lon="5.11764">
        <ele>324.58</ele>
        <time>2019-02-25T13:33:06Z</time>
      </trkpt>
      <trkpt lat="43.97201" lon="5.11759">
        <ele>321.7</ele>
        <time>2019-02-25T13:33:28Z</time>
      </trkpt>
      <trkpt lat="43.97211" lon="5.11751">
        <ele>320.26</ele>
        <time>2019-02-25T13:33:50Z</time>
      </trkpt>
      <trkpt lat="43.97214" lon="5.11756">
        <ele>320.74</ele>
        <time>2019-02-25T13:34:25Z</time>
      </trkpt>
      <trkpt lat="43.97221" lon="5.1175">
        <ele>320.74</ele>
        <time>2019-02-25T13:34:51Z</time>
      </trkpt>
      <trkpt lat="43.9723" lon="5.11742">
        <ele>319.3</ele>
        <time>2019-02-25T13:35:07Z</time>
      </trkpt>
      <trkpt lat="43.97244" lon="5.11739">
        <ele>317.85</ele>
        <time>2019-02-25T13:35:27Z</time>
      </trkpt>
      <trkpt lat="43.97253" lon="5.11757">
        <ele>316.41</ele>
        <time>2019-02-25T13:35:45Z</time>
      </trkpt>
      <trkpt lat="43.97262" lon="5.11771">
        <ele>315.45</ele>
        <time>2019-02-25T13:36:01Z</time>
      </trkpt>
      <trkpt lat="43.97278" lon="5.11791">
        <ele>315.93</ele>
        <time>2019-02-25T13:36:24Z</time>
      </trkpt>
      <trkpt lat="43.97295" lon="5.11803">
        <ele>317.85</ele>
        <time>2019-02-25T13:36:44Z</time>
      </trkpt>
      <trkpt lat="43.97305" lon="5.11814">
        <ele>319.78</ele>
        <time>2019-02-25T13:37:01Z</time>
      </trkpt>
      <trkpt lat="43.97316" lon="5.11821">
        <ele>322.18</ele>
        <time>2019-02-25T13:37:21Z</time>
      </trkpt>
      <trkpt lat="43.97321" lon="5.11834">
        <ele>324.58</ele>
        <time>2019-02-25T13:37:43Z</time>
      </trkpt>
      <trkpt lat="43.97316" lon="5.11847">
        <ele>326.99</ele>
        <time>2019-02-25T13:38:04Z</time>
      </trkpt>
      <trkpt lat="43.97308" lon="5.11854">
        <ele>328.91</ele>
        <time>2019-02-25T13:38:23Z</time>
      </trkpt>
      <trkpt lat="43.97308" lon="5.11861">
        <ele>329.39</ele>
        <time>2019-02-25T13:38:42Z</time>
      </trkpt>
      <trkpt lat="43.97313" lon="5.11863">
        <ele>330.83</ele>
        <time>2019-02-25T13:39:01Z</time>
      </trkpt>
      <trkpt lat="43.9732" lon="5.11861">
        <ele>331.31</ele>
        <time>2019-02-25T13:39:34Z</time>
      </trkpt>
      <trkpt lat="43.97321" lon="5.11857">
        <ele>331.31</ele>
        <time>2019-02-25T13:39:57Z</time>
      </trkpt>
      <trkpt lat="43.9733" lon="5.11855">
        <ele>332.27</ele>
        <time>2019-02-25T13:40:17Z</time>
      </trkpt>
      <trkpt lat="43.97342" lon="5.11842">
        <ele>335.16</ele>
        <time>2019-02-25T13:40:38Z</time>
      </trkpt>
      <trkpt lat="43.97352" lon="5.11839">
        <ele>336.6</ele>
        <time>2019-02-25T13:40:53Z</time>
      </trkpt>
      <trkpt lat="43.97359" lon="5.11837">
        <ele>337.56</ele>
        <time>2019-02-25T13:41:07Z</time>
      </trkpt>
      <trkpt lat="43.97375" lon="5.11829">
        <ele>338.52</ele>
        <time>2019-02-25T13:41:27Z</time>
      </trkpt>
      <trkpt lat="43.97377" lon="5.11834">
        <ele>340.92</ele>
        <time>2019-02-25T13:41:46Z</time>
      </trkpt>
      <trkpt lat="43.97381" lon="5.11829">
        <ele>341.89</ele>
        <time>2019-02-25T13:42:15Z</time>
      </trkpt>
      <trkpt lat="43.97385" lon="5.1182">
        <ele>342.37</ele>
        <time>2019-02-25T13:42:42Z</time>
      </trkpt>
      <trkpt lat="43.97389" lon="5.11825">
        <ele>343.81</ele>
        <time>2019-02-25T13:42:56Z</time>
      </trkpt>
      <trkpt lat="43.97381" lon="5.11842">
        <ele>346.21</ele>
        <time>2019-02-25T13:43:12Z</time>
      </trkpt>
      <trkpt lat="43.97385" lon="5.11849">
        <ele>348.62</ele>
        <time>2019-02-25T13:43:29Z</time>
      </trkpt>
      <trkpt lat="43.97397" lon="5.11844">
        <ele>351.98</ele>
        <time>2019-02-25T13:43:50Z</time>
      </trkpt>
      <trkpt lat="43.97403" lon="5.11839">
        <ele>354.38</ele>
        <time>2019-02-25T13:44:10Z</time>
      </trkpt>
      <trkpt lat="43.97408" lon="5.11836">
        <ele>356.31</ele>
        <time>2019-02-25T13:44:32Z</time>
      </trkpt>
      <trkpt lat="43.97406" lon="5.1183">
        <ele>356.31</ele>
        <time>2019-02-25T13:44:57Z</time>
      </trkpt>
      <trkpt lat="43.97406" lon="5.11824">
        <ele>355.83</ele>
        <time>2019-02-25T13:45:18Z</time>
      </trkpt>
      <trkpt lat="43.97409" lon="5.11831">
        <ele>356.31</ele>
        <time>2019-02-25T13:45:39Z</time>
      </trkpt>
      <trkpt lat="43.97411" lon="5.11836">
        <ele>356.31</ele>
        <time>2019-02-25T13:46:05Z</time>
      </trkpt>
      <trkpt lat="43.9741" lon="5.11835">
        <ele>356.31</ele>
        <time>2019-02-25T13:46:41Z</time>
      </trkpt>
      <trkpt lat="43.97423" lon="5.11838">
        <ele>356.31</ele>
        <time>2019-02-25T13:47:05Z</time>
      </trkpt>
      <trkpt lat="43.97424" lon="5.11834">
        <ele>356.31</ele>
        <time>2019-02-25T13:47:11Z</time>
      </trkpt>
      <trkpt lat="43.97426" lon="5.11834">
        <ele>356.31</ele>
        <time>2019-02-25T13:47:37Z</time>
      </trkpt>
      <trkpt lat="43.97427" lon="5.11833">
        <ele>361.11</ele>
        <time>2019-02-25T13:47:40Z</time>
      </trkpt>
      <trkpt lat="43.97427" lon="5.11833">
        <ele>360.63</ele>
        <time>2019-02-25T13:47:41Z</time>
      </trkpt>
      <trkpt lat="43.97426" lon="5.11834">
        <ele>360.63</ele>
        <time>2019-02-25T13:48:12Z</time>
      </trkpt>
      <trkpt lat="43.97426" lon="5.11831">
        <ele>360.15</ele>
        <time>2019-02-25T13:48:46Z</time>
      </trkpt>
      <trkpt lat="43.9743" lon="5.11833">
        <ele>360.15</ele>
        <time>2019-02-25T13:49:10Z</time>
      </trkpt>
      <trkpt lat="43.97431" lon="5.11832">
        <ele>360.15</ele>
        <time>2019-02-25T13:49:38Z</time>
      </trkpt>
      <trkpt lat="43.97431" lon="5.1183">
        <ele>360.15</ele>
        <time>2019-02-25T13:50:07Z</time>
      </trkpt>
      <trkpt lat="43.97433" lon="5.11841">
        <ele>360.15</ele>
        <time>2019-02-25T13:50:33Z</time>
      </trkpt>
      <trkpt lat="43.97439" lon="5.11864">
        <ele>361.11</ele>
        <time>2019-02-25T13:50:51Z</time>
      </trkpt>
      <trkpt lat="43.97446" lon="5.11881">
        <ele>362.07</ele>
        <time>2019-02-25T13:51:07Z</time>
      </trkpt>
      <trkpt lat="43.97459" lon="5.11891">
        <ele>363.52</ele>
        <time>2019-02-25T13:51:22Z</time>
      </trkpt>
      <trkpt lat="43.97462" lon="5.11891">
        <ele>363.52</ele>
        <time>2019-02-25T13:51:25Z</time>
      </trkpt>
      <trkpt lat="43.97473" lon="5.11893">
        <ele>364</ele>
        <time>2019-02-25T13:51:40Z</time>
      </trkpt>
      <trkpt lat="43.97486" lon="5.11901">
        <ele>365.44</ele>
        <time>2019-02-25T13:51:59Z</time>
      </trkpt>
      <trkpt lat="43.97503" lon="5.11911">
        <ele>367.36</ele>
        <time>2019-02-25T13:52:22Z</time>
      </trkpt>
      <trkpt lat="43.97522" lon="5.11915">
        <ele>367.84</ele>
        <time>2019-02-25T13:52:43Z</time>
      </trkpt>
      <trkpt lat="43.97545" lon="5.11917">
        <ele>367.84</ele>
        <time>2019-02-25T13:53:06Z</time>
      </trkpt>
      <trkpt lat="43.97561" lon="5.11921">
        <ele>367.84</ele>
        <time>2019-02-25T13:53:22Z</time>
      </trkpt>
      <trkpt lat="43.97584" lon="5.11924">
        <ele>367.36</ele>
        <time>2019-02-25T13:53:40Z</time>
      </trkpt>
      <trkpt lat="43.97604" lon="5.11926">
        <ele>365.44</ele>
        <time>2019-02-25T13:53:59Z</time>
      </trkpt>
      <trkpt lat="43.97614" lon="5.11928">
        <ele>364.96</ele>
        <time>2019-02-25T13:54:09Z</time>
      </trkpt>
      <trkpt lat="43.97626" lon="5.1193">
        <ele>364.48</ele>
        <time>2019-02-25T13:54:19Z</time>
      </trkpt>
      <trkpt lat="43.9765" lon="5.11928">
        <ele>363.52</ele>
        <time>2019-02-25T13:54:37Z</time>
      </trkpt>
      <trkpt lat="43.97667" lon="5.11928">
        <ele>363.04</ele>
        <time>2019-02-25T13:54:53Z</time>
      </trkpt>
      <trkpt lat="43.9767" lon="5.11928">
        <ele>363.04</ele>
        <time>2019-02-25T13:55:13Z</time>
      </trkpt>
      <trkpt lat="43.97674" lon="5.1193">
        <ele>363.04</ele>
        <time>2019-02-25T13:55:17Z</time>
      </trkpt>
      <trkpt lat="43.97678" lon="5.11934">
        <ele>363.04</ele>
        <time>2019-02-25T13:55:23Z</time>
      </trkpt>
      <trkpt lat="43.97692" lon="5.11946">
        <ele>362.55</ele>
        <time>2019-02-25T13:55:41Z</time>
      </trkpt>
      <trkpt lat="43.97703" lon="5.11957">
        <ele>361.59</ele>
        <time>2019-02-25T13:55:57Z</time>
      </trkpt>
      <trkpt lat="43.97717" lon="5.11969">
        <ele>359.67</ele>
        <time>2019-02-25T13:56:19Z</time>
      </trkpt>
      <trkpt lat="43.97731" lon="5.11977">
        <ele>358.23</ele>
        <time>2019-02-25T13:56:37Z</time>
      </trkpt>
      <trkpt lat="43.97732" lon="5.11977">
        <ele>357.75</ele>
        <time>2019-02-25T13:56:38Z</time>
      </trkpt>
      <trkpt lat="43.97742" lon="5.11975">
        <ele>357.27</ele>
        <time>2019-02-25T13:56:47Z</time>
      </trkpt>
      <trkpt lat="43.97755" lon="5.11972">
        <ele>356.31</ele>
        <time>2019-02-25T13:57:02Z</time>
      </trkpt>
      <trkpt lat="43.97763" lon="5.11971">
        <ele>355.83</ele>
        <time>2019-02-25T13:57:10Z</time>
      </trkpt>
      <trkpt lat="43.9778" lon="5.11975">
        <ele>353.42</ele>
        <time>2019-02-25T13:57:29Z</time>
      </trkpt>
      <trkpt lat="43.97787" lon="5.11992">
        <ele>351.02</ele>
        <time>2019-02-25T13:57:47Z</time>
      </trkpt>
      <trkpt lat="43.97787" lon="5.11994">
        <ele>351.02</ele>
        <time>2019-02-25T13:57:48Z</time>
      </trkpt>
      <trkpt lat="43.97797" lon="5.12018">
        <ele>348.13</ele>
        <time>2019-02-25T13:58:06Z</time>
      </trkpt>
      <trkpt lat="43.97804" lon="5.1204">
        <ele>346.21</ele>
        <time>2019-02-25T13:58:22Z</time>
      </trkpt>
      <trkpt lat="43.97807" lon="5.12046">
        <ele>344.77</ele>
        <time>2019-02-25T13:58:28Z</time>
      </trkpt>
      <trkpt lat="43.97815" lon="5.12067">
        <ele>342.37</ele>
        <time>2019-02-25T13:58:45Z</time>
      </trkpt>
      <trkpt lat="43.97817" lon="5.12073">
        <ele>341.89</ele>
        <time>2019-02-25T13:58:50Z</time>
      </trkpt>
      <trkpt lat="43.97826" lon="5.12096">
        <ele>339.48</ele>
        <time>2019-02-25T13:59:08Z</time>
      </trkpt>
      <trkpt lat="43.97827" lon="5.12099">
        <ele>339</ele>
        <time>2019-02-25T13:59:11Z</time>
      </trkpt>
      <trkpt lat="43.97834" lon="5.12116">
        <ele>336.6</ele>
        <time>2019-02-25T13:59:34Z</time>
      </trkpt>
      <trkpt lat="43.97842" lon="5.12146">
        <ele>333.23</ele>
        <time>2019-02-25T13:59:57Z</time>
      </trkpt>
      <trkpt lat="43.9785" lon="5.12165">
        <ele>331.31</ele>
        <time>2019-02-25T14:00:12Z</time>
      </trkpt>
      <trkpt lat="43.97859" lon="5.12189">
        <ele>330.35</ele>
        <time>2019-02-25T14:00:28Z</time>
      </trkpt>
      <trkpt lat="43.97879" lon="5.12197">
        <ele>330.83</ele>
        <time>2019-02-25T14:00:47Z</time>
      </trkpt>
      <trkpt lat="43.97894" lon="5.12198">
        <ele>330.83</ele>
        <time>2019-02-25T14:01:02Z</time>
      </trkpt>
      <trkpt lat="43.97913" lon="5.12189">
        <ele>329.87</ele>
        <time>2019-02-25T14:01:19Z</time>
      </trkpt>
      <trkpt lat="43.97932" lon="5.12175">
        <ele>329.39</ele>
        <time>2019-02-25T14:01:37Z</time>
      </trkpt>
      <trkpt lat="43.97951" lon="5.12155">
        <ele>328.43</ele>
        <time>2019-02-25T14:01:57Z</time>
      </trkpt>
      <trkpt lat="43.97964" lon="5.12145">
        <ele>328.43</ele>
        <time>2019-02-25T14:02:10Z</time>
      </trkpt>
      <trkpt lat="43.97983" lon="5.12129">
        <ele>326.99</ele>
        <time>2019-02-25T14:02:28Z</time>
      </trkpt>
      <trkpt lat="43.97994" lon="5.12119">
        <ele>326.02</ele>
        <time>2019-02-25T14:02:40Z</time>
      </trkpt>
      <trkpt lat="43.97999" lon="5.12114">
        <ele>324.58</ele>
        <time>2019-02-25T14:02:46Z</time>
      </trkpt>
      <trkpt lat="43.98021" lon="5.1209">
        <ele>321.7</ele>
        <time>2019-02-25T14:03:11Z</time>
      </trkpt>
      <trkpt lat="43.98034" lon="5.12083">
        <ele>318.81</ele>
        <time>2019-02-25T14:03:28Z</time>
      </trkpt>
      <trkpt lat="43.98054" lon="5.12078">
        <ele>315.93</ele>
        <time>2019-02-25T14:03:50Z</time>
      </trkpt>
      <trkpt lat="43.98066" lon="5.12074">
        <ele>313.05</ele>
        <time>2019-02-25T14:04:08Z</time>
      </trkpt>
      <trkpt lat="43.98084" lon="5.12071">
        <ele>310.16</ele>
        <time>2019-02-25T14:04:29Z</time>
      </trkpt>
      <trkpt lat="43.9809" lon="5.1207">
        <ele>308.72</ele>
        <time>2019-02-25T14:04:37Z</time>
      </trkpt>
      <trkpt lat="43.98105" lon="5.12067">
        <ele>305.84</ele>
        <time>2019-02-25T14:04:53Z</time>
      </trkpt>
      <trkpt lat="43.98122" lon="5.12055">
        <ele>302.47</ele>
        <time>2019-02-25T14:05:12Z</time>
      </trkpt>
      <trkpt lat="43.98135" lon="5.12055">
        <ele>299.59</ele>
        <time>2019-02-25T14:05:27Z</time>
      </trkpt>
      <trkpt lat="43.9815" lon="5.12052">
        <ele>296.7</ele>
        <time>2019-02-25T14:05:42Z</time>
      </trkpt>
      <trkpt lat="43.98155" lon="5.12048">
        <ele>294.78</ele>
        <time>2019-02-25T14:05:49Z</time>
      </trkpt>
      <trkpt lat="43.98172" lon="5.12051">
        <ele>291.9</ele>
        <time>2019-02-25T14:06:05Z</time>
      </trkpt>
      <trkpt lat="43.98179" lon="5.12052">
        <ele>289.97</ele>
        <time>2019-02-25T14:06:21Z</time>
      </trkpt>
      <trkpt lat="43.98179" lon="5.12049">
        <ele>289.97</ele>
        <time>2019-02-25T14:06:48Z</time>
      </trkpt>
      <trkpt lat="43.98176" lon="5.12048">
        <ele>290.46</ele>
        <time>2019-02-25T14:07:15Z</time>
      </trkpt>
      <trkpt lat="43.98177" lon="5.12052">
        <ele>289.97</ele>
        <time>2019-02-25T14:07:44Z</time>
      </trkpt>
      <trkpt lat="43.98186" lon="5.12057">
        <ele>289.97</ele>
        <time>2019-02-25T14:08:09Z</time>
      </trkpt>
      <trkpt lat="43.98199" lon="5.12052">
        <ele>287.57</ele>
        <time>2019-02-25T14:08:25Z</time>
      </trkpt>
      <trkpt lat="43.98213" lon="5.12046">
        <ele>286.13</ele>
        <time>2019-02-25T14:08:40Z</time>
      </trkpt>
      <trkpt lat="43.98225" lon="5.12034">
        <ele>284.21</ele>
        <time>2019-02-25T14:08:58Z</time>
      </trkpt>
      <trkpt lat="43.98243" lon="5.12011">
        <ele>281.8</ele>
        <time>2019-02-25T14:09:18Z</time>
      </trkpt>
      <trkpt lat="43.98261" lon="5.12">
        <ele>279.4</ele>
        <time>2019-02-25T14:09:41Z</time>
      </trkpt>
      <trkpt lat="43.98277" lon="5.12">
        <ele>279.4</ele>
        <time>2019-02-25T14:09:59Z</time>
      </trkpt>
      <trkpt lat="43.98285" lon="5.11999">
        <ele>280.36</ele>
        <time>2019-02-25T14:10:13Z</time>
      </trkpt>
      <trkpt lat="43.98289" lon="5.11995">
        <ele>280.36</ele>
        <time>2019-02-25T14:10:36Z</time>
      </trkpt>
      <trkpt lat="43.98287" lon="5.11984">
        <ele>280.84</ele>
        <time>2019-02-25T14:10:58Z</time>
      </trkpt>
      <trkpt lat="43.98286" lon="5.11987">
        <ele>280.36</ele>
        <time>2019-02-25T14:11:23Z</time>
      </trkpt>
      <trkpt lat="43.98286" lon="5.11988">
        <ele>280.36</ele>
        <time>2019-02-25T14:11:34Z</time>
      </trkpt>
      <trkpt lat="43.98286" lon="5.11989">
        <ele>280.36</ele>
        <time>2019-02-25T14:12:02Z</time>
      </trkpt>
      <trkpt lat="43.98286" lon="5.11983">
        <ele>280.36</ele>
        <time>2019-02-25T14:12:43Z</time>
      </trkpt>
      <trkpt lat="43.98284" lon="5.11984">
        <ele>280.36</ele>
        <time>2019-02-25T14:13:16Z</time>
      </trkpt>
      <trkpt lat="43.98286" lon="5.11983">
        <ele>280.36</ele>
        <time>2019-02-25T14:14:05Z</time>
      </trkpt>
      <trkpt lat="43.98287" lon="5.1199">
        <ele>280.36</ele>
        <time>2019-02-25T14:14:29Z</time>
      </trkpt>
      <trkpt lat="43.98296" lon="5.11991">
        <ele>280.36</ele>
        <time>2019-02-25T14:14:51Z</time>
      </trkpt>
      <trkpt lat="43.98297" lon="5.1199">
        <ele>280.36</ele>
        <time>2019-02-25T14:14:52Z</time>
      </trkpt>
      <trkpt lat="43.98315" lon="5.11981">
        <ele>280.84</ele>
        <time>2019-02-25T14:15:14Z</time>
      </trkpt>
      <trkpt lat="43.98329" lon="5.11976">
        <ele>281.8</ele>
        <time>2019-02-25T14:15:31Z</time>
      </trkpt>
      <trkpt lat="43.9833" lon="5.11975">
        <ele>281.8</ele>
        <time>2019-02-25T14:15:32Z</time>
      </trkpt>
      <trkpt lat="43.98338" lon="5.11974">
        <ele>282.28</ele>
        <time>2019-02-25T14:15:43Z</time>
      </trkpt>
      <trkpt lat="43.98352" lon="5.11964">
        <ele>282.28</ele>
        <time>2019-02-25T14:15:59Z</time>
      </trkpt>
      <trkpt lat="43.9837" lon="5.11958">
        <ele>280.84</ele>
        <time>2019-02-25T14:16:21Z</time>
      </trkpt>
      <trkpt lat="43.98374" lon="5.11953">
        <ele>280.84</ele>
        <time>2019-02-25T14:16:37Z</time>
      </trkpt>
      <trkpt lat="43.9839" lon="5.11951">
        <ele>277.96</ele>
        <time>2019-02-25T14:16:59Z</time>
      </trkpt>
      <trkpt lat="43.98397" lon="5.11949">
        <ele>275.56</ele>
        <time>2019-02-25T14:17:21Z</time>
      </trkpt>
      <trkpt lat="43.98397" lon="5.1195">
        <ele>276.04</ele>
        <time>2019-02-25T14:17:52Z</time>
      </trkpt>
      <trkpt lat="43.98406" lon="5.11959">
        <ele>273.63</ele>
        <time>2019-02-25T14:18:13Z</time>
      </trkpt>
      <trkpt lat="43.98411" lon="5.11963">
        <ele>271.71</ele>
        <time>2019-02-25T14:18:31Z</time>
      </trkpt>
      <trkpt lat="43.9842" lon="5.11977">
        <ele>268.83</ele>
        <time>2019-02-25T14:18:50Z</time>
      </trkpt>
      <trkpt lat="43.98419" lon="5.11963">
        <ele>268.83</ele>
        <time>2019-02-25T14:19:04Z</time>
      </trkpt>
      <trkpt lat="43.98418" lon="5.11954">
        <ele>268.83</ele>
        <time>2019-02-25T14:19:30Z</time>
      </trkpt>
      <trkpt lat="43.98407" lon="5.11936">
        <ele>269.31</ele>
        <time>2019-02-25T14:19:47Z</time>
      </trkpt>
      <trkpt lat="43.98392" lon="5.11922">
        <ele>269.31</ele>
        <time>2019-02-25T14:20:06Z</time>
      </trkpt>
      <trkpt lat="43.98378" lon="5.11919">
        <ele>269.31</ele>
        <time>2019-02-25T14:20:21Z</time>
      </trkpt>
      <trkpt lat="43.98356" lon="5.11922">
        <ele>269.79</ele>
        <time>2019-02-25T14:20:49Z</time>
      </trkpt>
      <trkpt lat="43.98356" lon="5.11922">
        <ele>269.79</ele>
        <time>2019-02-25T14:20:50Z</time>
      </trkpt>
    </trkseg>
  </trk>
</gpx>